Wetterdaten: Sonntag, 07.02.2021
Datum Zeit Temp. Aussen Temp. o. S. Temp +5cm Feuchte Auss Luftdruck Regen Sonnenschein Regendauer Solar Windben Empfang
07.02.2021 00:00 0,0 C -0,6 C -1,6 C 98 % 1001,8 hPa 0,0 l/m 0 min 2 min 0 W/m 3,2 km/h (1 Bft) 93,62 %
07.02.2021 00:02 0,1 C -0,6 C -1,6 C 98 % 1001,8 hPa 0,0 l/m 0 min 2 min 0 W/m 6,4 km/h (2 Bft) 92,31 %
07.02.2021 00:04 0,0 C -0,6 C -1,6 C 98 % 1001,6 hPa 0,2 l/m 0 min 2 min 0 W/m 9,7 km/h (2 Bft) 95,74 %
07.02.2021 00:08 0,0 C -0,6 C -1,6 C 97 % 1001,5 hPa 0,0 l/m 0 min 4 min 0 W/m 0,0 km/h (0 Bft) 94,62 %
07.02.2021 00:10 0,0 C -0,6 C -1,6 C 98 % 1001,4 hPa 0,0 l/m 0 min 2 min 0 W/m 6,4 km/h (2 Bft) 97,87 %
07.02.2021 00:12 0,0 C -0,6 C -1,6 C 97 % 1001,3 hPa 0,0 l/m 0 min 2 min 0 W/m 0,0 km/h (0 Bft) 97,87 %
07.02.2021 00:14 0,0 C -0,6 C -1,6 C 97 % 1001,4 hPa 0,2 l/m 0 min 2 min 0 W/m 0,0 km/h (0 Bft) 97,87 %
07.02.2021 00:16 0,0 C -0,6 C -1,6 C 97 % 1001,5 hPa 0,0 l/m 0 min 2 min 0 W/m 0,0 km/h (0 Bft) 97,83 %
07.02.2021 00:18 0,0 C -0,6 C -1,6 C 97 % 1001,6 hPa 0,0 l/m 0 min 2 min 0 W/m 0,0 km/h (0 Bft) 95,74 %
07.02.2021 00:20 0,0 C -0,6 C -1,6 C 97 % 1001,6 hPa 0,0 l/m 0 min 2 min 0 W/m 0,0 km/h (0 Bft) 97,87 %
07.02.2021 00:22 0,0 C -0,6 C -1,6 C 97 % 1001,5 hPa 0,2 l/m 0 min 2 min 0 W/m 0,0 km/h (0 Bft) 97,87 %
07.02.2021 00:24 0,0 C -0,6 C -1,6 C 97 % 1001,5 hPa 0,0 l/m 0 min 2 min 0 W/m 0,0 km/h (0 Bft) 87,23 %
07.02.2021 00:26 0,0 C -0,6 C -1,6 C 97 % 1001,4 hPa 0,2 l/m 0 min 2 min 0 W/m 6,4 km/h (2 Bft) 57,89 %
07.02.2021 00:28 0,0 C -0,6 C -1,6 C 97 % 1001,3 hPa 0,0 l/m 0 min 2 min 0 W/m 3,2 km/h (1 Bft) 95,65 %
07.02.2021 00:30 0,0 C -0,6 C -1,6 C 97 % 1001,3 hPa 0,2 l/m 0 min 2 min 0 W/m 0,0 km/h (0 Bft) 95,74 %
07.02.2021 00:32 0,0 C -0,6 C -1,6 C 97 % 1001,4 hPa 0,0 l/m 0 min 2 min 0 W/m 3,2 km/h (1 Bft) 95,92 %
07.02.2021 00:34 0,0 C -0,6 C -1,6 C 98 % 1001,3 hPa 0,0 l/m 0 min 2 min 0 W/m 0,0 km/h (0 Bft) 97,87 %
07.02.2021 00:36 0,0 C -0,6 C -1,6 C 98 % 1001,4 hPa 0,0 l/m 0 min 0 min 0 W/m 0,0 km/h (0 Bft) 97,87 %
07.02.2021 00:38 0,0 C -0,6 C -1,6 C 98 % 1001,5 hPa 0,2 l/m 0 min 0 min 0 W/m 0,0 km/h (0 Bft) 97,87 %
07.02.2021 00:40 0,0 C -0,6 C -1,6 C 98 % 1001,5 hPa 0,0 l/m 0 min 0 min 0 W/m 0,0 km/h (0 Bft) 100,00 %
07.02.2021 00:42 0,0 C -0,6 C -1,6 C 98 % 1001,4 hPa 0,0 l/m 0 min 0 min 0 W/m 0,0 km/h (0 Bft) 100,00 %
07.02.2021 00:44 0,0 C -0,6 C -1,6 C 98 % 1001,4 hPa 0,0 l/m 0 min 2 min 0 W/m 0,0 km/h (0 Bft) 97,87 %
07.02.2021 00:46 0,0 C -0,6 C -1,6 C 98 % 1001,3 hPa 0,0 l/m 0 min 2 min 0 W/m 0,0 km/h (0 Bft) 97,87 %
07.02.2021 00:48 0,0 C -0,6 C -1,6 C 98 % 1001,3 hPa 0,0 l/m 0 min 2 min 0 W/m 0,0 km/h (0 Bft) 97,87 %
07.02.2021 00:50 0,0 C -0,6 C -1,6 C 98 % 1001,3 hPa 0,0 l/m 0 min 2 min 0 W/m 0,0 km/h (0 Bft) 100,00 %
07.02.2021 00:52 0,0 C -0,6 C -1,6 C 98 % 1001,3 hPa 0,0 l/m 0 min 2 min 0 W/m 0,0 km/h (0 Bft) 97,83 %
07.02.2021 00:54 0,0 C -0,6 C -1,6 C 98 % 1001,4 hPa 0,0 l/m 0 min 0 min 0 W/m 0,0 km/h (0 Bft) 97,87 %
07.02.2021 00:56 0,0 C -0,6 C -1,6 C 98 % 1001,4 hPa 0,0 l/m 0 min 0 min 0 W/m 3,2 km/h (1 Bft) 100,00 %
07.02.2021 00:58 0,0 C -0,6 C -1,6 C 98 % 1001,4 hPa 0,0 l/m 0 min 0 min 0 W/m 3,2 km/h (1 Bft) 100,00 %
07.02.2021 01:00 0,0 C -0,6 C -1,6 C 98 % 1001,4 hPa 0,0 l/m 0 min 0 min 0 W/m 0,0 km/h (0 Bft) 100,00 %
07.02.2021 01:02 0,0 C -0,6 C -1,6 C 98 % 1001,4 hPa 0,2 l/m 0 min 0 min 0 W/m 0,0 km/h (0 Bft) 97,87 %
07.02.2021 01:04 0,0 C -0,6 C -1,6 C 98 % 1001,6 hPa 0,0 l/m 0 min 2 min 0 W/m 0,0 km/h (0 Bft) 97,83 %
07.02.2021 01:06 0,0 C -0,6 C -1,6 C 98 % 1001,6 hPa 0,0 l/m 0 min 0 min 0 W/m 0,0 km/h (0 Bft) 97,87 %
07.02.2021 01:08 0,0 C -0,6 C -1,6 C 98 % 1001,7 hPa 0,0 l/m 0 min 0 min 0 W/m 0,0 km/h (0 Bft) 100,00 %
07.02.2021 01:10 0,0 C -0,6 C -1,6 C 98 % 1001,7 hPa 0,0 l/m 0 min 0 min 0 W/m 0,0 km/h (0 Bft) 100,00 %
07.02.2021 01:12 0,0 C -0,6 C -1,6 C 98 % 1001,6 hPa 0,0 l/m 0 min 0 min 0 W/m 0,0 km/h (0 Bft) 97,83 %
07.02.2021 01:14 0,0 C -0,6 C -1,6 C 98 % 1001,6 hPa 0,0 l/m 0 min 2 min 0 W/m 0,0 km/h (0 Bft) 100,00 %
07.02.2021 01:16 0,0 C -0,6 C -1,6 C 98 % 1001,6 hPa 0,0 l/m 0 min 2 min 0 W/m 0,0 km/h (0 Bft) 97,83 %
07.02.2021 01:18 0,0 C -0,6 C -1,6 C 98 % 1001,6 hPa 0,0 l/m 0 min 2 min 0 W/m 0,0 km/h (0 Bft) 100,00 %
07.02.2021 01:20 0,0 C -0,6 C -1,6 C 98 % 1001,5 hPa 0,0 l/m 0 min 2 min 0 W/m 0,0 km/h (0 Bft) 100,00 %
07.02.2021 01:22 0,0 C -0,6 C -1,6 C 98 % 1001,5 hPa 0,0 l/m 0 min 2 min 0 W/m 0,0 km/h (0 Bft) 97,87 %
07.02.2021 01:24 0,0 C -0,6 C -1,6 C 98 % 1001,4 hPa 0,0 l/m 0 min 2 min 0 W/m 0,0 km/h (0 Bft) 97,87 %
07.02.2021 01:26 0,0 C -0,6 C -1,6 C 98 % 1001,4 hPa 0,0 l/m 0 min 2 min 0 W/m 0,0 km/h (0 Bft) 97,87 %
07.02.2021 01:28 0,0 C -0,6 C -1,6 C 98 % 1001,3 hPa 0,0 l/m 0 min 0 min 0 W/m 0,0 km/h (0 Bft) 100,00 %
07.02.2021 01:30 0,0 C -0,6 C -1,6 C 98 % 1001,2 hPa 0,0 l/m 0 min 2 min 0 W/m 0,0 km/h (0 Bft) 100,00 %
07.02.2021 01:32 0,0 C -0,6 C -1,6 C 98 % 1001,0 hPa 0,0 l/m 0 min 0 min 0 W/m 0,0 km/h (0 Bft) 95,74 %
07.02.2021 01:34 0,0 C -0,6 C -1,6 C 98 % 1001,0 hPa 0,0 l/m 0 min 0 min 0 W/m 0,0 km/h (0 Bft) 97,87 %
07.02.2021 01:36 0,0 C -0,6 C -1,6 C 98 % 1000,9 hPa 0,0 l/m 0 min 2 min 0 W/m 0,0 km/h (0 Bft) 95,74 %
07.02.2021 01:38 0,0 C -0,6 C -1,6 C 98 % 1000,9 hPa 0,0 l/m 0 min 2 min 0 W/m 0,0 km/h (0 Bft) 97,87 %
07.02.2021 01:40 0,0 C -0,6 C -1,6 C 98 % 1000,8 hPa 0,0 l/m 0 min 2 min 0 W/m 0,0 km/h (0 Bft) 97,83 %
07.02.2021 01:42 0,0 C -0,6 C -1,6 C 98 % 1000,9 hPa 0,0 l/m 0 min 2 min 0 W/m 0,0 km/h (0 Bft) 93,62 %
07.02.2021 01:44 0,0 C -0,6 C -1,6 C 98 % 1000,8 hPa 0,0 l/m 0 min 2 min 0 W/m 0,0 km/h (0 Bft) 97,87 %
07.02.2021 01:46 -0,1 C -0,6 C -1,6 C 98 % 1000,8 hPa 0,2 l/m 0 min 0 min 0 W/m 6,4 km/h (2 Bft) 97,87 %
07.02.2021 01:48 -0,1 C -0,6 C -1,6 C 98 % 1000,7 hPa 0,0 l/m 0 min 0 min 0 W/m 3,2 km/h (1 Bft) 97,87 %
07.02.2021 01:50 -0,1 C -0,6 C -1,6 C 98 % 1000,6 hPa 0,0 l/m 0 min 2 min 0 W/m 0,0 km/h (0 Bft) 97,87 %
07.02.2021 01:52 -0,1 C -0,6 C -1,6 C 98 % 1000,6 hPa 0,0 l/m 0 min 2 min 0 W/m 0,0 km/h (0 Bft) 95,65 %
07.02.2021 01:54 -0,1 C -0,6 C -1,6 C 98 % 1000,5 hPa 0,0 l/m 0 min 2 min 0 W/m 0,0 km/h (0 Bft) 95,74 %
07.02.2021 01:56 -0,1 C -0,6 C -1,6 C 98 % 1000,3 hPa 0,0 l/m 0 min 2 min 0 W/m 0,0 km/h (0 Bft) 93,62 %
07.02.2021 01:58 -0,1 C -1,1 C -1,6 C 98 % 1000,2 hPa 0,0 l/m 0 min 2 min 0 W/m 0,0 km/h (0 Bft) 95,74 %
07.02.2021 02:00 -0,1 C -0,6 C -1,6 C 98 % 1000,2 hPa 0,0 l/m 0 min 2 min 0 W/m 3,2 km/h (1 Bft) 95,74 %
07.02.2021 02:02 -0,1 C -0,6 C -1,6 C 98 % 1000,1 hPa 0,0 l/m 0 min 2 min 0 W/m 0,0 km/h (0 Bft) 91,49 %
07.02.2021 02:04 -0,1 C -1,1 C -1,6 C 98 % 1000,0 hPa 0,0 l/m 0 min 2 min 0 W/m 6,4 km/h (2 Bft) 95,74 %
07.02.2021 02:06 -0,2 C -0,6 C -1,6 C 98 % 999,9 hPa 0,0 l/m 0 min 2 min 0 W/m 3,2 km/h (1 Bft) 95,74 %
07.02.2021 02:08 -0,2 C -1,1 C -1,6 C 98 % 1000,0 hPa 0,0 l/m 0 min 2 min 0 W/m 0,0 km/h (0 Bft) 95,74 %
07.02.2021 02:10 -0,2 C -1,1 C -1,6 C 97 % 999,9 hPa 0,0 l/m 0 min 2 min 0 W/m 0,0 km/h (0 Bft) 95,74 %
07.02.2021 02:12 -0,2 C -1,1 C -1,6 C 97 % 999,8 hPa 0,0 l/m 0 min 0 min 0 W/m 0,0 km/h (0 Bft) 95,74 %
07.02.2021 02:14 -0,2 C -1,1 C -1,6 C 97 % 999,8 hPa 0,0 l/m 0 min 0 min 0 W/m 0,0 km/h (0 Bft) 95,65 %
07.02.2021 02:16 -0,2 C -1,1 C -1,6 C 98 % 999,8 hPa 0,0 l/m 0 min 0 min 0 W/m 0,0 km/h (0 Bft) 95,74 %
07.02.2021 02:18 -0,2 C -1,1 C -1,6 C 98 % 999,8 hPa 0,0 l/m 0 min 0 min 0 W/m 0,0 km/h (0 Bft) 93,62 %
07.02.2021 02:20 -0,3 C -1,1 C -1,6 C 98 % 999,7 hPa 0,0 l/m 0 min 2 min 0 W/m 0,0 km/h (0 Bft) 95,74 %
07.02.2021 02:22 -0,3 C -1,1 C -1,6 C 98 % 999,7 hPa 0,0 l/m 0 min 0 min 0 W/m 0,0 km/h (0 Bft) 95,74 %
07.02.2021 02:24 -0,3 C -1,1 C -1,6 C 98 % 999,7 hPa 0,0 l/m 0 min 2 min 0 W/m 3,2 km/h (1 Bft) 93,62 %
07.02.2021 02:26 -0,3 C -1,1 C -1,6 C 98 % 999,7 hPa 0,0 l/m 0 min 2 min 0 W/m 0,0 km/h (0 Bft) 97,83 %
07.02.2021 02:28 -0,3 C -1,1 C -1,6 C 98 % 999,7 hPa 0,0 l/m 0 min 2 min 0 W/m 0,0 km/h (0 Bft) 95,74 %
07.02.2021 02:30 -0,3 C -1,1 C -1,6 C 98 % 999,7 hPa 0,0 l/m 0 min 0 min 0 W/m 0,0 km/h (0 Bft) 97,87 %
07.02.2021 02:32 -0,3 C -1,1 C -1,6 C 98 % 999,8 hPa 0,0 l/m 0 min 0 min 0 W/m 0,0 km/h (0 Bft) 97,92 %
07.02.2021 02:34 -0,3 C -1,1 C -1,6 C 98 % 999,7 hPa 0,0 l/m 0 min 2 min 0 W/m 0,0 km/h (0 Bft) 97,87 %
07.02.2021 02:36 -0,3 C -1,1 C -1,6 C 98 % 999,7 hPa 0,0 l/m 0 min 2 min 0 W/m 0,0 km/h (0 Bft) 97,87 %
07.02.2021 02:38 -0,3 C -1,1 C -1,6 C 98 % 999,7 hPa 0,0 l/m 0 min 2 min 0 W/m 0,0 km/h (0 Bft) 100,00 %
07.02.2021 02:40 -0,4 C -1,1 C -1,6 C 98 % 999,7 hPa 0,0 l/m 0 min 2 min 0 W/m 0,0 km/h (0 Bft) 54,55 %
07.02.2021 02:42 -0,3 C -1,1 C -1,6 C 98 % 999,6 hPa 0,0 l/m 0 min 2 min 0 W/m 0,0 km/h (0 Bft) 100,00 %
07.02.2021 02:44 -0,4 C -1,1 C -1,6 C 98 % 999,5 hPa 0,0 l/m 0 min 2 min 0 W/m 3,2 km/h (1 Bft) 100,00 %
07.02.2021 02:46 -0,4 C -1,1 C -1,6 C 98 % 999,4 hPa 0,0 l/m 0 min 2 min 0 W/m 3,2 km/h (1 Bft) 100,00 %
07.02.2021 02:48 -0,4 C -1,1 C -1,6 C 98 % 999,4 hPa 0,0 l/m 0 min 0 min 0 W/m 0,0 km/h (0 Bft) 100,00 %
07.02.2021 02:50 -0,4 C -1,1 C -1,6 C 98 % 999,4 hPa 0,0 l/m 0 min 0 min 0 W/m 0,0 km/h (0 Bft) 100,00 %
07.02.2021 02:52 -0,4 C -1,1 C -1,6 C 98 % 999,3 hPa 0,0 l/m 0 min 2 min 0 W/m 0,0 km/h (0 Bft) 100,00 %
07.02.2021 02:54 -0,4 C -1,1 C -1,6 C 98 % 999,2 hPa 0,0 l/m 0 min 2 min 0 W/m 0,0 km/h (0 Bft) 100,00 %
07.02.2021 02:56 -0,4 C -1,1 C -1,6 C 98 % 999,3 hPa 0,0 l/m 0 min 2 min 0 W/m 0,0 km/h (0 Bft) 100,00 %
07.02.2021 02:58 -0,4 C -1,1 C -1,6 C 98 % 999,4 hPa 0,0 l/m 0 min 2 min 0 W/m 0,0 km/h (0 Bft) 100,00 %
07.02.2021 03:00 -0,4 C -1,1 C -1,6 C 98 % 999,3 hPa 0,0 l/m 0 min 2 min 0 W/m 0,0 km/h (0 Bft) 100,00 %
07.02.2021 03:02 -0,4 C -1,1 C -1,6 C 98 % 999,3 hPa 0,0 l/m 0 min 2 min 0 W/m 0,0 km/h (0 Bft) 100,00 %
07.02.2021 03:04 -0,4 C -1,1 C -1,6 C 98 % 999,3 hPa 0,0 l/m 0 min 2 min 0 W/m 0,0 km/h (0 Bft) 100,00 %
07.02.2021 03:06 -0,4 C -1,1 C -1,6 C 98 % 999,3 hPa 0,0 l/m 0 min 2 min 0 W/m 0,0 km/h (0 Bft) 100,00 %
07.02.2021 03:08 -0,4 C -1,1 C -1,6 C 98 % 999,3 hPa 0,0 l/m 0 min 0 min 0 W/m 0,0 km/h (0 Bft) 100,00 %
07.02.2021 03:10 -0,4 C -1,1 C -1,6 C 98 % 999,3 hPa 0,0 l/m 0 min 0 min 0 W/m 0,0 km/h (0 Bft) 100,00 %
07.02.2021 03:12 -0,4 C -1,1 C -1,6 C 98 % 999,2 hPa 0,0 l/m 0 min 0 min 0 W/m 0,0 km/h (0 Bft) 97,83 %
07.02.2021 03:14 -0,4 C -1,1 C -1,6 C 98 % 999,2 hPa 0,0 l/m 0 min 0 min 0 W/m 0,0 km/h (0 Bft) 100,00 %
07.02.2021 03:16 -0,4 C -1,1 C -1,6 C 98 % 999,2 hPa 0,0 l/m 0 min 0 min 0 W/m 0,0 km/h (0 Bft) 100,00 %
07.02.2021 03:18 -0,4 C -1,1 C -1,6 C 98 % 999,2 hPa 0,0 l/m 0 min 0 min 0 W/m 0,0 km/h (0 Bft) 100,00 %
07.02.2021 03:20 -0,4 C -1,1 C -1,6 C 98 % 999,2 hPa 0,0 l/m 0 min 2 min 0 W/m 0,0 km/h (0 Bft) 97,87 %
07.02.2021 03:22 -0,4 C -1,1 C -1,6 C 98 % 999,1 hPa 0,0 l/m 0 min 0 min 0 W/m 0,0 km/h (0 Bft) 97,87 %
07.02.2021 03:24 -0,4 C -1,1 C -1,6 C 98 % 999,0 hPa 0,0 l/m 0 min 2 min 0 W/m 0,0 km/h (0 Bft) 55,56 %
07.02.2021 03:26 -0,4 C -1,1 C -1,6 C 98 % 999,0 hPa 0,0 l/m 0 min 2 min 0 W/m 0,0 km/h (0 Bft) 100,00 %
07.02.2021 03:28 -0,4 C -1,1 C -1,6 C 98 % 999,0 hPa 0,0 l/m 0 min 2 min 0 W/m 0,0 km/h (0 Bft) 100,00 %
07.02.2021 03:30 -0,5 C -1,1 C -1,6 C 98 % 999,0 hPa 0,0 l/m 0 min 0 min 0 W/m 0,0 km/h (0 Bft) 100,00 %
07.02.2021 03:32 -0,4 C -1,1 C -1,6 C 98 % 999,0 hPa 0,0 l/m 0 min 2 min 0 W/m 0,0 km/h (0 Bft) 97,87 %
07.02.2021 03:34 -0,5 C -1,1 C -1,6 C 98 % 999,0 hPa 0,0 l/m 0 min 0 min 0 W/m 0,0 km/h (0 Bft) 100,00 %
07.02.2021 03:36 -0,4 C -1,1 C -1,6 C 98 % 999,0 hPa 0,0 l/m 0 min 0 min 0 W/m 0,0 km/h (0 Bft) 100,00 %
07.02.2021 03:38 -0,4 C -1,1 C -1,6 C 98 % 999,0 hPa 0,0 l/m 0 min 0 min 0 W/m 0,0 km/h (0 Bft) 100,00 %
07.02.2021 03:40 -0,4 C -1,1 C -1,6 C 98 % 999,0 hPa 0,0 l/m 0 min 0 min 0 W/m 0,0 km/h (0 Bft) 100,00 %
07.02.2021 03:42 -0,4 C -1,1 C -1,6 C 98 % 999,0 hPa 0,0 l/m 0 min 0 min 0 W/m 0,0 km/h (0 Bft) 100,00 %
07.02.2021 03:44 -0,5 C -1,1 C -1,6 C 98 % 998,9 hPa 0,0 l/m 0 min 0 min 0 W/m 0,0 km/h (0 Bft) 100,00 %
07.02.2021 03:46 -0,5 C -1,1 C -1,6 C 98 % 998,9 hPa 0,0 l/m 0 min 2 min 0 W/m 0,0 km/h (0 Bft) 97,87 %
07.02.2021 03:48 -0,5 C -1,1 C -1,6 C 98 % 998,8 hPa 0,0 l/m 0 min 0 min 0 W/m 0,0 km/h (0 Bft) 100,00 %
07.02.2021 03:50 -0,5 C -1,1 C -1,6 C 98 % 998,8 hPa 0,0 l/m 0 min 2 min 0 W/m 3,2 km/h (1 Bft) 100,00 %
07.02.2021 03:52 -0,5 C -1,1 C -1,6 C 98 % 998,8 hPa 0,0 l/m 0 min 0 min 0 W/m 0,0 km/h (0 Bft) 100,00 %
07.02.2021 03:54 -0,5 C -1,1 C -1,6 C 98 % 998,7 hPa 0,0 l/m 0 min 0 min 0 W/m 0,0 km/h (0 Bft) 100,00 %
07.02.2021 03:56 -0,5 C -1,1 C -1,6 C 98 % 998,7 hPa 0,0 l/m 0 min 2 min 0 W/m 6,4 km/h (2 Bft) 97,87 %
07.02.2021 03:58 -0,5 C -1,1 C -1,6 C 98 % 998,7 hPa 0,0 l/m 0 min 0 min 0 W/m 0,0 km/h (0 Bft) 100,00 %
07.02.2021 04:00 -0,5 C -1,1 C -1,6 C 98 % 998,6 hPa 0,0 l/m 0 min 2 min 0 W/m 3,2 km/h (1 Bft) 100,00 %
07.02.2021 04:02 -0,5 C -1,1 C -1,6 C 98 % 998,6 hPa 0,0 l/m 0 min 2 min 0 W/m 3,2 km/h (1 Bft) 100,00 %
07.02.2021 04:04 -0,5 C -1,1 C -1,6 C 98 % 998,5 hPa 0,0 l/m 0 min 0 min 0 W/m 0,0 km/h (0 Bft) 95,74 %
07.02.2021 04:06 -0,5 C -1,1 C -1,6 C 98 % 998,5 hPa 0,0 l/m 0 min 0 min 0 W/m 0,0 km/h (0 Bft) 97,87 %
07.02.2021 04:08 -0,5 C -1,1 C -1,6 C 98 % 998,5 hPa 0,0 l/m 0 min 0 min 0 W/m 3,2 km/h (1 Bft) 100,00 %
07.02.2021 04:10 -0,5 C -1,1 C -1,6 C 98 % 998,5 hPa 0,0 l/m 0 min 0 min 0 W/m 3,2 km/h (1 Bft) 100,00 %
07.02.2021 04:12 -0,5 C -1,1 C -1,6 C 98 % 998,5 hPa 0,0 l/m 0 min 0 min 0 W/m 0,0 km/h (0 Bft) 100,00 %
07.02.2021 04:14 -0,5 C -1,1 C -1,6 C 98 % 998,5 hPa 0,0 l/m 0 min 0 min 0 W/m 0,0 km/h (0 Bft) 100,00 %
07.02.2021 04:16 -0,5 C -1,1 C -1,6 C 98 % 998,5 hPa 0,0 l/m 0 min 0 min 0 W/m 0,0 km/h (0 Bft) 100,00 %
07.02.2021 04:18 -0,5 C -1,1 C -1,6 C 98 % 998,5 hPa 0,0 l/m 0 min 0 min 0 W/m 3,2 km/h (1 Bft) 97,87 %
07.02.2021 04:20 -0,5 C -1,1 C -1,6 C 98 % 998,5 hPa 0,0 l/m 0 min 0 min 0 W/m 0,0 km/h (0 Bft) 100,00 %
07.02.2021 04:22 -0,5 C -1,1 C -1,6 C 98 % 998,4 hPa 0,0 l/m 0 min 0 min 0 W/m 0,0 km/h (0 Bft) 100,00 %
07.02.2021 04:24 -0,5 C -1,1 C -1,6 C 98 % 998,4 hPa 0,0 l/m 0 min 0 min 0 W/m 3,2 km/h (1 Bft) 100,00 %
07.02.2021 04:26 -0,5 C -1,1 C -1,6 C 98 % 998,4 hPa 0,0 l/m 0 min 0 min 0 W/m 0,0 km/h (0 Bft) 97,87 %
07.02.2021 04:28 -0,5 C -1,1 C -1,6 C 98 % 998,4 hPa 0,0 l/m 0 min 0 min 0 W/m 0,0 km/h (0 Bft) 95,74 %
07.02.2021 04:30 -0,5 C -1,1 C -1,6 C 98 % 998,4 hPa 0,0 l/m 0 min 0 min 0 W/m 3,2 km/h (1 Bft) 97,87 %
07.02.2021 04:32 -0,5 C -1,1 C -1,6 C 98 % 998,4 hPa 0,0 l/m 0 min 0 min 0 W/m 0,0 km/h (0 Bft) 97,87 %
07.02.2021 04:34 -0,5 C -1,1 C -1,6 C 98 % 998,3 hPa 0,0 l/m 0 min 0 min 0 W/m 0,0 km/h (0 Bft) 93,48 %
07.02.2021 04:36 -0,5 C -1,1 C -1,6 C 98 % 998,3 hPa 0,0 l/m 0 min 0 min 0 W/m 0,0 km/h (0 Bft) 93,62 %
07.02.2021 04:38 -0,5 C -1,1 C -1,6 C 98 % 998,3 hPa 0,0 l/m 0 min 0 min 0 W/m 0,0 km/h (0 Bft) 93,62 %
07.02.2021 04:40 -0,5 C -1,1 C -1,6 C 98 % 998,3 hPa 0,0 l/m 0 min 2 min 0 W/m 0,0 km/h (0 Bft) 95,74 %
07.02.2021 04:42 -0,5 C -1,1 C -1,6 C 98 % 998,3 hPa 0,2 l/m 0 min 2 min 0 W/m 3,2 km/h (1 Bft) 95,74 %
07.02.2021 04:44 -0,5 C -1,1 C -1,6 C 98 % 998,3 hPa 0,0 l/m 0 min 2 min 0 W/m 0,0 km/h (0 Bft) 93,62 %
07.02.2021 04:46 -0,5 C -1,1 C -1,6 C 98 % 998,2 hPa 0,0 l/m 0 min 0 min 0 W/m 0,0 km/h (0 Bft) 95,65 %
07.02.2021 04:48 -0,5 C -1,1 C -1,6 C 98 % 998,2 hPa 0,0 l/m 0 min 0 min 0 W/m 0,0 km/h (0 Bft) 93,62 %
07.02.2021 04:50 -0,5 C -1,1 C -1,6 C 98 % 998,2 hPa 0,0 l/m 0 min 2 min 0 W/m 0,0 km/h (0 Bft) 95,74 %
07.02.2021 04:52 -0,5 C -1,1 C -1,6 C 98 % 998,1 hPa 0,0 l/m 0 min 2 min 0 W/m 0,0 km/h (0 Bft) 63,83 %
07.02.2021 04:54 -0,5 C -1,1 C -1,6 C 98 % 998,2 hPa 0,0 l/m 0 min 2 min 0 W/m 0,0 km/h (0 Bft) 81,82 %
07.02.2021 04:56 -0,5 C -1,1 C -1,6 C 98 % 998,2 hPa 0,0 l/m 0 min 0 min 0 W/m 0,0 km/h (0 Bft) 93,62 %
07.02.2021 04:58 -0,5 C -1,1 C -1,6 C 98 % 998,2 hPa 0,0 l/m 0 min 0 min 0 W/m 0,0 km/h (0 Bft) 95,65 %
07.02.2021 05:00 -0,5 C -1,1 C -1,6 C 98 % 998,1 hPa 0,0 l/m 0 min 0 min 0 W/m 0,0 km/h (0 Bft) 95,74 %
07.02.2021 05:02 -0,5 C -1,1 C -1,6 C 98 % 998,1 hPa 0,0 l/m 0 min 0 min 0 W/m 0,0 km/h (0 Bft) 92,50 %
07.02.2021 05:04 -0,5 C -1,1 C -1,6 C 98 % 998,1 hPa 0,0 l/m 0 min 2 min 0 W/m 0,0 km/h (0 Bft) 95,74 %
07.02.2021 05:06 -0,5 C -1,1 C -1,6 C 98 % 998,1 hPa 0,0 l/m 0 min 2 min 0 W/m 0,0 km/h (0 Bft) 95,83 %
07.02.2021 05:08 -0,5 C -1,1 C -1,6 C 98 % 998,0 hPa 0,0 l/m 0 min 0 min 0 W/m 0,0 km/h (0 Bft) 95,74 %
07.02.2021 05:10 -0,5 C -1,1 C -1,6 C 98 % 998,1 hPa 0,0 l/m 0 min 0 min 0 W/m 3,2 km/h (1 Bft) 93,48 %
07.02.2021 05:12 -0,6 C -1,1 C -1,6 C 98 % 998,1 hPa 0,0 l/m 0 min 0 min 0 W/m 0,0 km/h (0 Bft) 91,49 %
07.02.2021 05:14 -0,6 C -1,1 C -1,6 C 98 % 998,1 hPa 0,0 l/m 0 min 0 min 0 W/m 0,0 km/h (0 Bft) 95,74 %
07.02.2021 05:16 -0,6 C -1,1 C -1,6 C 98 % 998,1 hPa 0,0 l/m 0 min 0 min 0 W/m 0,0 km/h (0 Bft) 97,87 %
07.02.2021 05:18 -0,6 C -1,1 C -1,6 C 98 % 998,1 hPa 0,0 l/m 0 min 0 min 0 W/m 0,0 km/h (0 Bft) 100,00 %
07.02.2021 05:20 -0,6 C -1,1 C -1,6 C 98 % 998,1 hPa 0,0 l/m 0 min 0 min 0 W/m 0,0 km/h (0 Bft) 100,00 %
07.02.2021 05:22 -0,6 C -1,1 C -1,6 C 98 % 998,1 hPa 0,0 l/m 0 min 0 min 0 W/m 3,2 km/h (1 Bft) 100,00 %
07.02.2021 05:24 -0,6 C -1,1 C -1,6 C 98 % 998,1 hPa 0,0 l/m 0 min 0 min 0 W/m 0,0 km/h (0 Bft) 97,87 %
07.02.2021 05:26 -0,6 C -1,1 C -1,6 C 98 % 998,1 hPa 0,0 l/m 0 min 0 min 0 W/m 0,0 km/h (0 Bft) 97,87 %
07.02.2021 05:28 -0,6 C -1,1 C -1,6 C 98 % 998,0 hPa 0,0 l/m 0 min 0 min 0 W/m 0,0 km/h (0 Bft) 100,00 %
07.02.2021 05:30 -0,7 C -1,7 C -1,6 C 98 % 998,0 hPa 0,0 l/m 0 min 0 min 0 W/m 0,0 km/h (0 Bft) 100,00 %
07.02.2021 05:32 -0,7 C -1,7 C -1,6 C 98 % 998,0 hPa 0,0 l/m 0 min 0 min 0 W/m 0,0 km/h (0 Bft) 97,87 %
07.02.2021 05:34 -0,7 C -1,7 C -1,6 C 98 % 998,0 hPa 0,0 l/m 0 min 0 min 0 W/m 0,0 km/h (0 Bft) 100,00 %
07.02.2021 05:36 -0,7 C -1,7 C -1,6 C 98 % 998,0 hPa 0,0 l/m 0 min 0 min 0 W/m 0,0 km/h (0 Bft) 100,00 %
07.02.2021 05:38 -0,7 C -1,7 C -2,2 C 98 % 998,0 hPa 0,0 l/m 0 min 0 min 0 W/m 0,0 km/h (0 Bft) 100,00 %
07.02.2021 05:40 -0,7 C -1,7 C -2,2 C 98 % 997,9 hPa 0,0 l/m 0 min 0 min 0 W/m 0,0 km/h (0 Bft) 100,00 %
07.02.2021 05:42 -0,8 C -1,7 C -2,2 C 98 % 997,9 hPa 0,0 l/m 0 min 0 min 0 W/m 0,0 km/h (0 Bft) 100,00 %
07.02.2021 05:44 -0,8 C -1,7 C -2,2 C 98 % 997,9 hPa 0,0 l/m 0 min 0 min 0 W/m 0,0 km/h (0 Bft) 100,00 %
07.02.2021 05:46 -0,9 C -1,7 C -2,2 C 98 % 997,9 hPa 0,0 l/m 0 min 0 min 0 W/m 0,0 km/h (0 Bft) 100,00 %
07.02.2021 05:48 -0,9 C -1,7 C -2,2 C 98 % 997,8 hPa 0,0 l/m 0 min 0 min 0 W/m 0,0 km/h (0 Bft) 100,00 %
07.02.2021 05:50 -0,9 C -1,7 C -2,2 C 98 % 997,8 hPa 0,0 l/m 0 min 0 min 0 W/m 0,0 km/h (0 Bft) 97,87 %
07.02.2021 05:52 -0,9 C -1,7 C -2,2 C 98 % 997,8 hPa 0,0 l/m 0 min 0 min 0 W/m 0,0 km/h (0 Bft) 100,00 %
07.02.2021 05:54 -0,9 C -1,7 C -2,2 C 98 % 997,8 hPa 0,0 l/m 0 min 0 min 0 W/m 0,0 km/h (0 Bft) 100,00 %
07.02.2021 05:56 -0,9 C -1,7 C -2,2 C 98 % 997,7 hPa 0,0 l/m 0 min 0 min 0 W/m 0,0 km/h (0 Bft) 100,00 %
07.02.2021 05:58 -0,9 C -1,7 C -2,2 C 98 % 997,7 hPa 0,0 l/m 0 min 0 min 0 W/m 0,0 km/h (0 Bft) 100,00 %
07.02.2021 06:00 -0,9 C -1,7 C -2,2 C 98 % 997,7 hPa 0,0 l/m 0 min 0 min 0 W/m 0,0 km/h (0 Bft) 100,00 %
07.02.2021 06:02 -1,0 C -1,7 C -2,2 C 98 % 997,7 hPa 0,0 l/m 0 min 0 min 0 W/m 0,0 km/h (0 Bft) 100,00 %
07.02.2021 06:04 -1,0 C -1,7 C -2,2 C 98 % 997,7 hPa 0,0 l/m 0 min 0 min 0 W/m 0,0 km/h (0 Bft) 97,87 %
07.02.2021 06:08 -1,0 C -1,7 C -2,2 C 98 % 997,6 hPa 0,0 l/m 0 min 0 min 0 W/m 0,0 km/h (0 Bft) 98,94 %
07.02.2021 06:10 -1,0 C -1,7 C -2,2 C 98 % 997,6 hPa 0,0 l/m 0 min 0 min 0 W/m 0,0 km/h (0 Bft) 97,83 %
07.02.2021 06:12 -1,0 C -1,7 C -2,2 C 98 % 997,7 hPa 0,0 l/m 0 min 0 min 0 W/m 0,0 km/h (0 Bft) 100,00 %
07.02.2021 06:14 -1,0 C -1,7 C -2,2 C 98 % 997,6 hPa 0,0 l/m 0 min 0 min 0 W/m 0,0 km/h (0 Bft) 97,87 %
07.02.2021 06:16 -1,0 C -1,7 C -2,2 C 98 % 997,6 hPa 0,0 l/m 0 min 0 min 0 W/m 0,0 km/h (0 Bft) 100,00 %
07.02.2021 06:18 -1,0 C -1,7 C -2,2 C 98 % 997,6 hPa 0,0 l/m 0 min 0 min 0 W/m 0,0 km/h (0 Bft) 100,00 %
07.02.2021 06:20 -1,1 C -1,7 C -2,2 C 98 % 997,5 hPa 0,0 l/m 0 min 0 min 0 W/m 0,0 km/h (0 Bft) 95,74 %
07.02.2021 06:22 -1,1 C -1,7 C -2,2 C 98 % 997,5 hPa 0,0 l/m 0 min 0 min 0 W/m 0,0 km/h (0 Bft) 57,14 %
07.02.2021 06:24 -1,1 C -1,7 C -2,2 C 98 % 997,5 hPa 0,0 l/m 0 min 0 min 0 W/m 0,0 km/h (0 Bft) 100,00 %
07.02.2021 06:26 -1,1 C -1,7 C -2,2 C 98 % 997,4 hPa 0,0 l/m 0 min 0 min 0 W/m 0,0 km/h (0 Bft) 100,00 %
07.02.2021 06:28 -1,1 C -1,7 C -2,2 C 98 % 997,5 hPa 0,0 l/m 0 min 0 min 0 W/m 0,0 km/h (0 Bft) 100,00 %
07.02.2021 06:30 -1,1 C -1,7 C -2,2 C 98 % 997,4 hPa 0,0 l/m 0 min 0 min 0 W/m 0,0 km/h (0 Bft) 100,00 %
07.02.2021 06:32 -1,1 C -1,7 C -2,2 C 98 % 997,4 hPa 0,0 l/m 0 min 0 min 0 W/m 0,0 km/h (0 Bft) 100,00 %
07.02.2021 06:34 -1,2 C -1,7 C -2,2 C 98 % 997,4 hPa 0,0 l/m 0 min 0 min 0 W/m 0,0 km/h (0 Bft) 100,00 %
07.02.2021 06:36 -1,2 C -1,7 C -2,2 C 98 % 997,4 hPa 0,0 l/m 0 min 0 min 0 W/m 0,0 km/h (0 Bft) 97,87 %
07.02.2021 06:38 -1,2 C -1,7 C -2,2 C 98 % 997,4 hPa 0,0 l/m 0 min 0 min 0 W/m 0,0 km/h (0 Bft) 97,87 %
07.02.2021 06:40 -1,2 C -1,7 C -2,2 C 98 % 997,4 hPa 0,0 l/m 0 min 0 min 0 W/m 3,2 km/h (1 Bft) 100,00 %
07.02.2021 06:42 -1,2 C -1,7 C -2,2 C 98 % 997,4 hPa 0,0 l/m 0 min 0 min 0 W/m 0,0 km/h (0 Bft) 100,00 %
07.02.2021 06:44 -1,2 C -1,7 C -2,2 C 98 % 997,4 hPa 0,0 l/m 0 min 0 min 0 W/m 0,0 km/h (0 Bft) 100,00 %
07.02.2021 06:46 -1,2 C -1,7 C -2,2 C 98 % 997,3 hPa 0,0 l/m 0 min 0 min 0 W/m 0,0 km/h (0 Bft) 100,00 %
07.02.2021 06:48 -1,2 C -1,7 C -2,2 C 98 % 997,4 hPa 0,0 l/m 0 min 0 min 0 W/m 0,0 km/h (0 Bft) 100,00 %
07.02.2021 06:50 -1,3 C -1,7 C -2,2 C 98 % 997,3 hPa 0,0 l/m 0 min 0 min 0 W/m 0,0 km/h (0 Bft) 100,00 %
07.02.2021 06:52 -1,3 C -1,7 C -2,2 C 98 % 997,4 hPa 0,0 l/m 0 min 0 min 0 W/m 0,0 km/h (0 Bft) 100,00 %
07.02.2021 06:54 -1,3 C -1,7 C -2,2 C 98 % 997,4 hPa 0,0 l/m 0 min 0 min 0 W/m 3,2 km/h (1 Bft) 100,00 %
07.02.2021 06:56 -1,3 C -2,2 C -2,2 C 98 % 997,3 hPa 0,0 l/m 0 min 0 min 0 W/m 3,2 km/h (1 Bft) 100,00 %
07.02.2021 06:58 -1,4 C -2,2 C -2,2 C 98 % 997,3 hPa 0,0 l/m 0 min 0 min 0 W/m 0,0 km/h (0 Bft) 100,00 %
07.02.2021 07:00 -1,4 C -2,2 C -2,2 C 98 % 997,3 hPa 0,0 l/m 0 min 0 min 0 W/m 0,0 km/h (0 Bft) 100,00 %
07.02.2021 07:02 -1,4 C -2,2 C -2,2 C 98 % 997,4 hPa 0,0 l/m 0 min 0 min 0 W/m 3,2 km/h (1 Bft) 97,87 %
07.02.2021 07:04 -1,4 C -2,2 C -2,7 C 98 % 997,3 hPa 0,0 l/m 0 min 0 min 0 W/m 0,0 km/h (0 Bft) 97,87 %
07.02.2021 07:06 -1,4 C -2,2 C -2,7 C 98 % 997,3 hPa 0,0 l/m 0 min 0 min 0 W/m 0,0 km/h (0 Bft) 95,74 %
07.02.2021 07:08 -1,4 C -2,2 C -2,2 C 98 % 997,4 hPa 0,0 l/m 0 min 0 min 0 W/m 0,0 km/h (0 Bft) 97,83 %
07.02.2021 07:10 -1,4 C -2,2 C -2,2 C 98 % 997,3 hPa 0,0 l/m 0 min 0 min 0 W/m 0,0 km/h (0 Bft) 97,87 %
07.02.2021 07:12 -1,4 C -2,2 C -2,2 C 98 % 997,3 hPa 0,0 l/m 0 min 0 min 0 W/m 0,0 km/h (0 Bft) 97,87 %
07.02.2021 07:14 -1,4 C -2,2 C -2,2 C 98 % 997,4 hPa 0,0 l/m 0 min 0 min 0 W/m 0,0 km/h (0 Bft) 91,49 %
07.02.2021 07:16 -1,4 C -2,2 C -2,2 C 98 % 997,4 hPa 0,0 l/m 0 min 0 min 0 W/m 0,0 km/h (0 Bft) 97,96 %
07.02.2021 07:18 -1,4 C -2,2 C -2,7 C 98 % 997,3 hPa 0,0 l/m 0 min 0 min 0 W/m 0,0 km/h (0 Bft) 95,74 %
07.02.2021 07:20 -1,5 C -2,2 C -2,2 C 98 % 997,3 hPa 0,0 l/m 0 min 0 min 0 W/m 0,0 km/h (0 Bft) 95,65 %
07.02.2021 07:22 -1,5 C -2,2 C -2,7 C 98 % 997,3 hPa 0,0 l/m 0 min 0 min 0 W/m 0,0 km/h (0 Bft) 93,62 %
07.02.2021 07:24 -1,5 C -2,2 C -2,7 C 98 % 997,3 hPa 0,0 l/m 0 min 0 min 0 W/m 0,0 km/h (0 Bft) 93,62 %
07.02.2021 07:26 -1,5 C -2,2 C -2,7 C 98 % 997,3 hPa 0,0 l/m 0 min 0 min 0 W/m 0,0 km/h (0 Bft) 91,49 %
07.02.2021 07:28 -1,5 C -2,2 C -2,7 C 97 % 997,2 hPa 0,0 l/m 0 min 0 min 0 W/m 9,7 km/h (2 Bft) 93,62 %
07.02.2021 07:30 -1,5 C -2,2 C -2,7 C 97 % 997,2 hPa 0,0 l/m 0 min 0 min 0 W/m 0,0 km/h (0 Bft) 91,49 %
07.02.2021 07:32 -1,6 C -2,2 C -2,7 C 97 % 997,2 hPa 0,0 l/m 0 min 0 min 0 W/m 6,4 km/h (2 Bft) 93,48 %
07.02.2021 07:34 -1,6 C -2,2 C -2,7 C 97 % 997,2 hPa 0,0 l/m 0 min 0 min 0 W/m 3,2 km/h (1 Bft) 95,74 %
07.02.2021 07:36 -1,6 C -2,2 C -2,7 C 97 % 997,2 hPa 0,0 l/m 0 min 0 min 0 W/m 0,0 km/h (0 Bft) 93,62 %
07.02.2021 07:38 -1,6 C -2,2 C -2,7 C 98 % 997,2 hPa 0,0 l/m 0 min 0 min 0 W/m 0,0 km/h (0 Bft) 93,62 %
07.02.2021 07:40 -1,6 C -2,2 C -2,7 C 98 % 997,2 hPa 0,0 l/m 0 min 0 min 0 W/m 0,0 km/h (0 Bft) 93,62 %
07.02.2021 07:42 -1,6 C -2,2 C -2,7 C 98 % 997,2 hPa 0,0 l/m 0 min 0 min 0 W/m 0,0 km/h (0 Bft) 93,62 %
07.02.2021 07:44 -1,6 C -2,2 C -2,7 C 98 % 997,2 hPa 0,0 l/m 0 min 0 min 0 W/m 0,0 km/h (0 Bft) 95,65 %
07.02.2021 07:46 -1,6 C -2,2 C -2,7 C 98 % 997,3 hPa 0,0 l/m 0 min 0 min 0 W/m 0,0 km/h (0 Bft) 46,34 %
07.02.2021 07:48 -1,6 C -2,2 C -2,7 C 97 % 997,3 hPa 0,0 l/m 0 min 0 min 0 W/m 0,0 km/h (0 Bft) 91,49 %
07.02.2021 07:50 -1,6 C -2,2 C -2,7 C 97 % 997,3 hPa 0,0 l/m 0 min 0 min 0 W/m 0,0 km/h (0 Bft) 93,62 %
07.02.2021 07:52 -1,6 C -2,2 C -2,7 C 97 % 997,3 hPa 0,0 l/m 0 min 0 min 0 W/m 0,0 km/h (0 Bft) 93,62 %
07.02.2021 07:54 -1,6 C -2,2 C -2,7 C 97 % 997,3 hPa 0,0 l/m 0 min 0 min 0 W/m 3,2 km/h (1 Bft) 91,49 %
07.02.2021 07:56 -1,7 C -2,2 C -2,7 C 97 % 997,3 hPa 0,0 l/m 0 min 0 min 0 W/m 0,0 km/h (0 Bft) 91,30 %
07.02.2021 07:58 -1,7 C -2,2 C -2,7 C 97 % 997,2 hPa 0,0 l/m 0 min 0 min 0 W/m 0,0 km/h (0 Bft) 91,49 %
07.02.2021 08:00 -1,7 C -2,2 C -2,7 C 97 % 997,2 hPa 0,0 l/m 0 min 0 min 0 W/m 0,0 km/h (0 Bft) 95,74 %
07.02.2021 08:02 -1,7 C -2,2 C -2,7 C 97 % 997,3 hPa 0,0 l/m 0 min 0 min 0 W/m 0,0 km/h (0 Bft) 97,87 %
07.02.2021 08:04 -1,7 C -2,2 C -2,7 C 97 % 997,3 hPa 0,0 l/m 0 min 0 min 0 W/m 0,0 km/h (0 Bft) 95,74 %
07.02.2021 08:06 -1,7 C -2,2 C -2,7 C 97 % 997,3 hPa 0,0 l/m 0 min 0 min 0 W/m 0,0 km/h (0 Bft) 97,83 %
07.02.2021 08:08 -1,8 C -2,2 C -2,7 C 97 % 997,3 hPa 0,0 l/m 0 min 0 min 0 W/m 12,9 km/h (3 Bft) 97,87 %
07.02.2021 08:10 -1,8 C -2,2 C -2,7 C 97 % 997,3 hPa 0,0 l/m 0 min 0 min 0 W/m 0,0 km/h (0 Bft) 97,87 %
07.02.2021 08:12 -1,8 C -2,2 C -2,7 C 97 % 997,3 hPa 0,0 l/m 0 min 0 min 0 W/m 0,0 km/h (0 Bft) 93,62 %
07.02.2021 08:14 -1,9 C -2,2 C -2,7 C 97 % 997,3 hPa 0,0 l/m 0 min 0 min 0 W/m 3,2 km/h (1 Bft) 97,87 %
07.02.2021 08:16 -1,9 C -2,2 C -2,7 C 97 % 997,4 hPa 0,0 l/m 0 min 0 min 0 W/m 0,0 km/h (0 Bft) 97,87 %
07.02.2021 08:18 -1,9 C -2,2 C -2,7 C 97 % 997,3 hPa 0,0 l/m 0 min 0 min 0 W/m 0,0 km/h (0 Bft) 97,87 %
07.02.2021 08:20 -1,9 C -2,2 C -2,7 C 97 % 997,4 hPa 0,0 l/m 0 min 0 min 0 W/m 3,2 km/h (1 Bft) 95,65 %
07.02.2021 08:22 -1,9 C -2,2 C -2,7 C 97 % 997,4 hPa 0,0 l/m 0 min 0 min 0 W/m 0,0 km/h (0 Bft) 97,87 %
07.02.2021 08:24 -1,9 C -2,2 C -2,7 C 97 % 997,3 hPa 0,0 l/m 0 min 0 min 0 W/m 0,0 km/h (0 Bft) 93,62 %
07.02.2021 08:26 -1,9 C -2,2 C -2,7 C 97 % 997,4 hPa 0,0 l/m 0 min 0 min 0 W/m 0,0 km/h (0 Bft) 97,87 %
07.02.2021 08:28 -1,9 C -2,2 C -2,7 C 97 % 997,3 hPa 0,0 l/m 0 min 0 min 0 W/m 0,0 km/h (0 Bft) 97,87 %
07.02.2021 08:30 -1,9 C -2,2 C -2,7 C 97 % 997,4 hPa 0,0 l/m 0 min 0 min 0 W/m 0,0 km/h (0 Bft) 97,83 %
07.02.2021 08:32 -1,9 C -2,2 C -2,7 C 97 % 997,4 hPa 0,0 l/m 0 min 0 min 0 W/m 0,0 km/h (0 Bft) 97,87 %
07.02.2021 08:34 -1,9 C -2,2 C -2,7 C 97 % 997,4 hPa 0,0 l/m 0 min 0 min 0 W/m 0,0 km/h (0 Bft) 95,74 %
07.02.2021 08:36 -1,9 C -2,8 C -2,7 C 97 % 997,5 hPa 0,0 l/m 0 min 0 min 0 W/m 0,0 km/h (0 Bft) 96,36 %
07.02.2021 08:38 -1,9 C -2,8 C -2,7 C 97 % 997,4 hPa 0,0 l/m 0 min 0 min 0 W/m 0,0 km/h (0 Bft) 100,00 %
07.02.2021 08:40 -1,9 C -2,8 C -2,7 C 97 % 997,4 hPa 0,0 l/m 0 min 0 min 0 W/m 0,0 km/h (0 Bft) 97,87 %
07.02.2021 08:42 -1,9 C -2,8 C -2,7 C 97 % 997,4 hPa 0,0 l/m 0 min 0 min 0 W/m 0,0 km/h (0 Bft) 97,87 %
07.02.2021 08:44 -2,0 C -2,8 C -2,7 C 97 % 997,4 hPa 0,0 l/m 0 min 0 min 0 W/m 0,0 km/h (0 Bft) 95,74 %
07.02.2021 08:46 -2,0 C -2,8 C -2,7 C 97 % 997,4 hPa 0,0 l/m 0 min 0 min 0 W/m 0,0 km/h (0 Bft) 95,74 %
07.02.2021 08:48 -2,0 C -2,8 C -2,7 C 97 % 997,4 hPa 0,0 l/m 0 min 0 min 0 W/m 0,0 km/h (0 Bft) 97,87 %
07.02.2021 08:50 -2,0 C -2,8 C -2,7 C 97 % 997,4 hPa 0,0 l/m 0 min 0 min 0 W/m 0,0 km/h (0 Bft) 97,87 %
07.02.2021 08:52 -2,0 C -2,8 C -3,3 C 97 % 997,4 hPa 0,0 l/m 0 min 0 min 5 W/m 0,0 km/h (0 Bft) 93,62 %
07.02.2021 08:54 -2,0 C -2,8 C -3,3 C 97 % 997,4 hPa 0,0 l/m 0 min 0 min 5 W/m 6,4 km/h (2 Bft) 97,83 %
07.02.2021 08:56 -2,0 C -2,8 C -3,3 C 97 % 997,4 hPa 0,0 l/m 0 min 0 min 5 W/m 0,0 km/h (0 Bft) 93,62 %
07.02.2021 08:58 -2,1 C -2,8 C -3,3 C 97 % 997,4 hPa 0,0 l/m 0 min 0 min 5 W/m 0,0 km/h (0 Bft) 97,87 %
07.02.2021 09:00 -2,1 C -2,8 C -3,3 C 97 % 997,5 hPa 0,0 l/m 0 min 0 min 5 W/m 0,0 km/h (0 Bft) 97,87 %
07.02.2021 09:02 -2,1 C -2,8 C -3,3 C 97 % 997,5 hPa 0,0 l/m 0 min 0 min 5 W/m 0,0 km/h (0 Bft) 95,74 %
07.02.2021 09:04 -2,1 C -2,8 C -3,3 C 97 % 997,4 hPa 0,0 l/m 0 min 0 min 5 W/m 0,0 km/h (0 Bft) 97,87 %
07.02.2021 09:06 -2,1 C -2,8 C -3,3 C 97 % 997,4 hPa 0,0 l/m 0 min 0 min 5 W/m 0,0 km/h (0 Bft) 95,65 %
07.02.2021 09:08 -2,1 C -2,8 C -3,3 C 97 % 997,5 hPa 0,0 l/m 0 min 0 min 5 W/m 0,0 km/h (0 Bft) 97,87 %
07.02.2021 09:10 -2,1 C -2,8 C -3,3 C 97 % 997,5 hPa 0,0 l/m 0 min 0 min 5 W/m 0,0 km/h (0 Bft) 97,87 %
07.02.2021 09:12 -2,1 C -2,8 C -3,3 C 97 % 997,5 hPa 0,0 l/m 0 min 0 min 5 W/m 0,0 km/h (0 Bft) 97,87 %
07.02.2021 09:14 -2,1 C -2,8 C -3,3 C 97 % 997,5 hPa 0,0 l/m 0 min 0 min 5 W/m 0,0 km/h (0 Bft) 97,87 %
07.02.2021 09:16 -2,1 C -2,8 C -3,3 C 97 % 997,5 hPa 0,0 l/m 0 min 0 min 5 W/m 0,0 km/h (0 Bft) 95,74 %
07.02.2021 09:18 -2,1 C -2,8 C -3,3 C 97 % 997,5 hPa 0,0 l/m 0 min 0 min 5 W/m 0,0 km/h (0 Bft) 97,83 %
07.02.2021 09:20 -2,1 C -2,8 C -3,3 C 97 % 997,6 hPa 0,0 l/m 0 min 0 min 6 W/m 0,0 km/h (0 Bft) 95,74 %
07.02.2021 09:22 -2,1 C -2,8 C -3,3 C 97 % 997,6 hPa 0,0 l/m 0 min 0 min 7 W/m 0,0 km/h (0 Bft) 97,87 %
07.02.2021 09:24 -2,2 C -2,8 C -3,3 C 97 % 997,6 hPa 0,0 l/m 0 min 0 min 7 W/m 0,0 km/h (0 Bft) 95,74 %
07.02.2021 09:26 -2,2 C -2,8 C -3,3 C 97 % 997,7 hPa 0,0 l/m 0 min 0 min 7 W/m 0,0 km/h (0 Bft) 97,87 %
07.02.2021 09:28 -2,2 C -2,8 C -3,3 C 97 % 997,6 hPa 0,0 l/m 0 min 0 min 7 W/m 0,0 km/h (0 Bft) 97,87 %
07.02.2021 09:30 -2,2 C -2,8 C -3,3 C 97 % 997,6 hPa 0,0 l/m 0 min 0 min 8 W/m 0,0 km/h (0 Bft) 97,83 %
07.02.2021 09:32 -2,2 C -2,8 C -3,3 C 97 % 997,7 hPa 0,0 l/m 0 min 0 min 9 W/m 0,0 km/h (0 Bft) 93,62 %
07.02.2021 09:34 -2,2 C -2,8 C -3,3 C 97 % 997,6 hPa 0,0 l/m 0 min 0 min 9 W/m 0,0 km/h (0 Bft) 97,87 %
07.02.2021 09:36 -2,2 C -2,8 C -3,3 C 97 % 997,6 hPa 0,0 l/m 0 min 0 min 9 W/m 3,2 km/h (1 Bft) 97,87 %
07.02.2021 09:38 -2,2 C -2,8 C -3,3 C 97 % 997,6 hPa 0,0 l/m 0 min 0 min 9 W/m 0,0 km/h (0 Bft) 95,74 %
07.02.2021 09:40 -2,3 C -2,8 C -3,3 C 97 % 997,7 hPa 0,0 l/m 0 min 0 min 10 W/m 6,4 km/h (2 Bft) 95,74 %
07.02.2021 09:42 -2,3 C -2,8 C -3,3 C 97 % 997,6 hPa 0,0 l/m 0 min 0 min 11 W/m 0,0 km/h (0 Bft) 93,48 %
07.02.2021 09:44 -2,3 C -2,8 C -3,3 C 97 % 997,7 hPa 0,0 l/m 0 min 0 min 11 W/m 0,0 km/h (0 Bft) 97,87 %
07.02.2021 09:46 -2,4 C -2,8 C -3,3 C 97 % 997,6 hPa 0,0 l/m 0 min 0 min 11 W/m 3,2 km/h (1 Bft) 97,87 %
07.02.2021 09:48 -2,4 C -2,8 C -3,3 C 97 % 997,7 hPa 0,0 l/m 0 min 0 min 11 W/m 0,0 km/h (0 Bft) 97,87 %
07.02.2021 09:50 -2,4 C -2,8 C -3,3 C 97 % 997,7 hPa 0,0 l/m 0 min 0 min 11 W/m 0,0 km/h (0 Bft) 93,62 %
07.02.2021 09:52 -2,4 C -2,8 C -3,3 C 97 % 997,7 hPa 0,0 l/m 0 min 0 min 11 W/m 0,0 km/h (0 Bft) 97,87 %
07.02.2021 09:54 -2,4 C -2,8 C -3,3 C 97 % 997,7 hPa 0,0 l/m 0 min 0 min 11 W/m 0,0 km/h (0 Bft) 97,83 %
07.02.2021 09:56 -2,4 C -2,8 C -3,3 C 97 % 997,7 hPa 0,0 l/m 0 min 0 min 11 W/m 0,0 km/h (0 Bft) 95,74 %
07.02.2021 09:58 -2,4 C -2,8 C -3,3 C 97 % 997,7 hPa 0,0 l/m 0 min 0 min 11 W/m 0,0 km/h (0 Bft) 95,74 %
07.02.2021 10:00 -2,4 C -2,8 C -3,3 C 97 % 997,8 hPa 0,0 l/m 0 min 0 min 11 W/m 0,0 km/h (0 Bft) 97,87 %
07.02.2021 10:02 -2,4 C -2,8 C -3,3 C 97 % 997,7 hPa 0,0 l/m 0 min 0 min 12 W/m 0,0 km/h (0 Bft) 93,62 %
07.02.2021 10:04 -2,4 C -2,8 C -3,3 C 97 % 997,7 hPa 0,0 l/m 0 min 0 min 12 W/m 3,2 km/h (1 Bft) 93,62 %
07.02.2021 10:06 -2,4 C -2,8 C -3,3 C 97 % 997,7 hPa 0,0 l/m 0 min 0 min 12 W/m 0,0 km/h (0 Bft) 97,83 %
07.02.2021 10:08 -2,4 C -2,8 C -3,3 C 97 % 997,7 hPa 0,0 l/m 0 min 0 min 12 W/m 6,4 km/h (2 Bft) 95,74 %
07.02.2021 10:10 -2,4 C -2,8 C -3,3 C 97 % 997,7 hPa 0,0 l/m 0 min 0 min 12 W/m 0,0 km/h (0 Bft) 95,74 %
07.02.2021 10:12 -2,4 C -2,8 C -3,3 C 97 % 997,7 hPa 0,0 l/m 0 min 0 min 14 W/m 0,0 km/h (0 Bft) 93,62 %
07.02.2021 10:14 -2,5 C -2,8 C -3,3 C 97 % 997,7 hPa 0,0 l/m 0 min 0 min 14 W/m 0,0 km/h (0 Bft) 95,74 %
07.02.2021 10:16 -2,5 C -2,8 C -3,3 C 97 % 997,7 hPa 0,0 l/m 0 min 0 min 14 W/m 0,0 km/h (0 Bft) 93,48 %
07.02.2021 10:18 -2,5 C -2,8 C -3,3 C 97 % 997,7 hPa 0,0 l/m 0 min 0 min 14 W/m 0,0 km/h (0 Bft) 95,74 %
07.02.2021 10:20 -2,5 C -2,8 C -3,3 C 97 % 997,6 hPa 0,0 l/m 0 min 0 min 16 W/m 3,2 km/h (1 Bft) 95,74 %
07.02.2021 10:22 -2,5 C -2,8 C -3,3 C 97 % 997,7 hPa 0,0 l/m 0 min 0 min 16 W/m 0,0 km/h (0 Bft) 95,74 %
07.02.2021 10:24 -2,5 C -2,8 C -3,3 C 97 % 997,7 hPa 0,0 l/m 0 min 0 min 16 W/m 0,0 km/h (0 Bft) 93,62 %
07.02.2021 10:26 -2,5 C -2,8 C -3,3 C 97 % 997,7 hPa 0,0 l/m 0 min 0 min 16 W/m 0,0 km/h (0 Bft) 95,74 %
07.02.2021 10:28 -2,5 C -2,8 C -3,3 C 97 % 997,7 hPa 0,0 l/m 0 min 0 min 16 W/m 0,0 km/h (0 Bft) 95,65 %
07.02.2021 10:30 -2,5 C -2,8 C -3,3 C 97 % 997,7 hPa 0,0 l/m 0 min 0 min 16 W/m 0,0 km/h (0 Bft) 95,74 %
07.02.2021 10:32 -2,5 C -2,8 C -3,3 C 97 % 997,7 hPa 0,0 l/m 0 min 0 min 16 W/m 0,0 km/h (0 Bft) 95,74 %
07.02.2021 10:34 -2,6 C -2,8 C -3,3 C 97 % 997,8 hPa 0,0 l/m 0 min 0 min 16 W/m 0,0 km/h (0 Bft) 95,74 %
07.02.2021 10:36 -2,6 C -2,8 C -3,3 C 96 % 997,7 hPa 0,0 l/m 0 min 0 min 16 W/m 0,0 km/h (0 Bft) 95,74 %
07.02.2021 10:38 -2,6 C -2,8 C -3,3 C 96 % 997,8 hPa 0,0 l/m 0 min 0 min 16 W/m 0,0 km/h (0 Bft) 97,87 %
07.02.2021 10:40 -2,6 C -2,8 C -3,3 C 96 % 997,7 hPa 0,0 l/m 0 min 0 min 16 W/m 0,0 km/h (0 Bft) 91,30 %
07.02.2021 10:42 -2,6 C -2,8 C -3,3 C 96 % 997,7 hPa 0,0 l/m 0 min 0 min 16 W/m 0,0 km/h (0 Bft) 97,87 %
07.02.2021 10:44 -2,6 C -3,3 C -3,3 C 96 % 997,8 hPa 0,0 l/m 0 min 0 min 16 W/m 0,0 km/h (0 Bft) 93,62 %
07.02.2021 10:46 -2,6 C -2,8 C -3,3 C 96 % 997,8 hPa 0,0 l/m 0 min 0 min 16 W/m 6,4 km/h (2 Bft) 97,87 %
07.02.2021 10:48 -2,6 C -2,8 C -3,8 C 96 % 997,8 hPa 0,0 l/m 0 min 0 min 18 W/m 3,2 km/h (1 Bft) 95,74 %
07.02.2021 10:50 -2,6 C -2,8 C -3,3 C 96 % 997,8 hPa 0,0 l/m 0 min 0 min 17 W/m 0,0 km/h (0 Bft) 95,74 %
07.02.2021 10:52 -2,6 C -2,8 C -3,3 C 96 % 997,8 hPa 0,0 l/m 0 min 0 min 16 W/m 3,2 km/h (1 Bft) 95,65 %
07.02.2021 10:54 -2,6 C -3,3 C -3,3 C 96 % 997,9 hPa 0,0 l/m 0 min 0 min 18 W/m 0,0 km/h (0 Bft) 97,87 %
07.02.2021 10:56 -2,6 C -3,3 C -3,3 C 96 % 997,8 hPa 0,0 l/m 0 min 0 min 18 W/m 0,0 km/h (0 Bft) 97,87 %
07.02.2021 10:58 -2,6 C -3,3 C -3,3 C 96 % 997,8 hPa 0,0 l/m 0 min 0 min 18 W/m 0,0 km/h (0 Bft) 95,74 %
07.02.2021 11:00 -2,6 C -3,3 C -3,3 C 96 % 997,8 hPa 0,0 l/m 0 min 0 min 18 W/m 0,0 km/h (0 Bft) 100,00 %
07.02.2021 11:02 -2,6 C -3,3 C -3,3 C 96 % 997,8 hPa 0,0 l/m 0 min 0 min 18 W/m 0,0 km/h (0 Bft) 100,00 %
07.02.2021 11:04 -2,6 C -3,3 C -3,8 C 96 % 997,8 hPa 0,0 l/m 0 min 0 min 18 W/m 0,0 km/h (0 Bft) 100,00 %
07.02.2021 11:06 -2,6 C -3,3 C -3,8 C 96 % 997,8 hPa 0,0 l/m 0 min 0 min 18 W/m 0,0 km/h (0 Bft) 100,00 %
07.02.2021 11:08 -2,7 C -3,3 C -3,8 C 96 % 997,9 hPa 0,0 l/m 0 min 0 min 18 W/m 0,0 km/h (0 Bft) 100,00 %
07.02.2021 11:10 -2,7 C -3,3 C -3,8 C 96 % 997,8 hPa 0,0 l/m 0 min 0 min 16 W/m 0,0 km/h (0 Bft) 100,00 %
07.02.2021 11:12 -2,7 C -3,3 C -3,8 C 96 % 997,8 hPa 0,0 l/m 0 min 0 min 16 W/m 0,0 km/h (0 Bft) 100,00 %
07.02.2021 11:14 -2,7 C -3,3 C -3,8 C 96 % 997,9 hPa 0,0 l/m 0 min 0 min 14 W/m 0,0 km/h (0 Bft) 100,00 %
07.02.2021 11:16 -2,8 C -3,3 C -3,8 C 96 % 997,9 hPa 0,0 l/m 0 min 0 min 14 W/m 0,0 km/h (0 Bft) 100,00 %
07.02.2021 11:18 -2,8 C -3,3 C -3,8 C 96 % 997,9 hPa 0,0 l/m 0 min 0 min 14 W/m 0,0 km/h (0 Bft) 100,00 %
07.02.2021 11:20 -2,8 C -3,3 C -3,8 C 96 % 997,9 hPa 0,0 l/m 0 min 0 min 16 W/m 0,0 km/h (0 Bft) 97,87 %
07.02.2021 11:22 -2,8 C -3,3 C -3,8 C 96 % 997,9 hPa 0,0 l/m 0 min 0 min 16 W/m 0,0 km/h (0 Bft) 100,00 %
07.02.2021 11:24 -2,8 C -3,3 C -3,8 C 96 % 998,0 hPa 0,0 l/m 0 min 0 min 16 W/m 0,0 km/h (0 Bft) 100,00 %
07.02.2021 11:26 -2,8 C -3,3 C -3,8 C 96 % 998,0 hPa 0,0 l/m 0 min 0 min 16 W/m 0,0 km/h (0 Bft) 100,00 %
07.02.2021 11:28 -2,8 C -3,3 C -3,8 C 96 % 997,9 hPa 0,0 l/m 0 min 0 min 17 W/m 0,0 km/h (0 Bft) 100,00 %
07.02.2021 11:30 -2,8 C -3,3 C -3,8 C 96 % 997,9 hPa 0,0 l/m 0 min 0 min 18 W/m 0,0 km/h (0 Bft) 100,00 %
07.02.2021 11:32 -2,8 C -3,3 C -3,8 C 96 % 998,0 hPa 0,0 l/m 0 min 0 min 18 W/m 0,0 km/h (0 Bft) 100,00 %
07.02.2021 11:34 -2,8 C -3,3 C -3,8 C 96 % 998,0 hPa 0,0 l/m 0 min 0 min 19 W/m 3,2 km/h (1 Bft) 95,74 %
07.02.2021 11:36 -2,9 C -3,3 C -3,8 C 96 % 997,9 hPa 0,0 l/m 0 min 0 min 19 W/m 6,4 km/h (2 Bft) 100,00 %
07.02.2021 11:38 -2,9 C -3,3 C -3,8 C 96 % 998,0 hPa 0,0 l/m 0 min 0 min 19 W/m 0,0 km/h (0 Bft) 100,00 %
07.02.2021 11:40 -2,9 C -3,3 C -3,8 C 96 % 998,0 hPa 0,0 l/m 0 min 0 min 21 W/m 0,0 km/h (0 Bft) 100,00 %
07.02.2021 11:42 -2,9 C -3,3 C -3,8 C 96 % 997,9 hPa 0,0 l/m 0 min 0 min 21 W/m 0,0 km/h (0 Bft) 100,00 %
07.02.2021 11:44 -2,9 C -3,3 C -3,8 C 96 % 998,0 hPa 0,0 l/m 0 min 0 min 23 W/m 0,0 km/h (0 Bft) 100,00 %
07.02.2021 11:46 -2,9 C -3,3 C -3,8 C 96 % 998,0 hPa 0,0 l/m 0 min 0 min 23 W/m 0,0 km/h (0 Bft) 100,00 %
07.02.2021 11:48 -2,9 C -3,3 C -3,8 C 96 % 998,0 hPa 0,0 l/m 0 min 0 min 25 W/m 3,2 km/h (1 Bft) 97,83 %
07.02.2021 11:50 -2,9 C -3,3 C -3,8 C 96 % 998,0 hPa 0,0 l/m 0 min 0 min 25 W/m 3,2 km/h (1 Bft) 100,00 %
07.02.2021 11:52 -2,9 C -3,3 C -3,3 C 96 % 998,0 hPa 0,0 l/m 0 min 0 min 26 W/m 0,0 km/h (0 Bft) 100,00 %
07.02.2021 11:54 -2,9 C -3,3 C -3,3 C 96 % 998,0 hPa 0,0 l/m 0 min 0 min 26 W/m 0,0 km/h (0 Bft) 97,87 %
07.02.2021 11:56 -2,9 C -3,3 C -3,3 C 96 % 998,0 hPa 0,0 l/m 0 min 0 min 26 W/m 0,0 km/h (0 Bft) 97,87 %
07.02.2021 11:58 -2,9 C -3,3 C -3,3 C 96 % 998,0 hPa 0,0 l/m 0 min 0 min 26 W/m 0,0 km/h (0 Bft) 100,00 %
07.02.2021 12:00 -2,9 C -3,3 C -3,8 C 96 % 998,0 hPa 0,0 l/m 0 min 0 min 28 W/m 0,0 km/h (0 Bft) 97,83 %
07.02.2021 12:02 -2,9 C -3,3 C -3,3 C 96 % 998,0 hPa 0,0 l/m 0 min 0 min 28 W/m 6,4 km/h (2 Bft) 100,00 %
07.02.2021 12:04 -2,9 C -2,8 C -3,8 C 96 % 998,0 hPa 0,0 l/m 0 min 0 min 30 W/m 3,2 km/h (1 Bft) 100,00 %
07.02.2021 12:08 -2,8 C -2,8 C -3,3 C 96 % 997,9 hPa 0,0 l/m 0 min 0 min 32 W/m 3,2 km/h (1 Bft) 100,00 %
07.02.2021 12:10 -2,8 C -2,8 C -3,3 C 96 % 998,0 hPa 0,0 l/m 0 min 0 min 33 W/m 0,0 km/h (0 Bft) 100,00 %
07.02.2021 12:12 -2,8 C -2,8 C -3,3 C 96 % 997,9 hPa 0,0 l/m 0 min 0 min 32 W/m 0,0 km/h (0 Bft) 100,00 %
07.02.2021 12:14 -2,8 C -2,8 C -3,3 C 96 % 998,0 hPa 0,0 l/m 0 min 0 min 32 W/m 6,4 km/h (2 Bft) 97,87 %
07.02.2021 12:16 -2,8 C -2,8 C -3,3 C 96 % 998,0 hPa 0,0 l/m 0 min 0 min 30 W/m 0,0 km/h (0 Bft) 100,00 %
07.02.2021 12:18 -2,8 C -2,8 C -3,8 C 96 % 998,0 hPa 0,0 l/m 0 min 0 min 31 W/m 0,0 km/h (0 Bft) 97,44 %
07.02.2021 12:20 -2,8 C -2,8 C -3,3 C 96 % 997,9 hPa 0,0 l/m 0 min 0 min 33 W/m 0,0 km/h (0 Bft) 100,00 %
07.02.2021 12:22 -2,8 C -2,8 C -3,8 C 96 % 998,0 hPa 0,0 l/m 0 min 0 min 33 W/m 0,0 km/h (0 Bft) 100,00 %
07.02.2021 12:24 -2,8 C -2,8 C -3,3 C 96 % 998,0 hPa 0,0 l/m 0 min 0 min 35 W/m 0,0 km/h (0 Bft) 100,00 %
07.02.2021 12:26 -2,8 C -2,8 C -3,3 C 96 % 997,9 hPa 0,0 l/m 0 min 0 min 38 W/m 0,0 km/h (0 Bft) 97,83 %
07.02.2021 12:28 -2,8 C -2,8 C -3,3 C 96 % 998,0 hPa 0,0 l/m 0 min 0 min 39 W/m 0,0 km/h (0 Bft) 97,87 %
07.02.2021 12:30 -2,8 C -2,8 C -3,3 C 96 % 998,0 hPa 0,0 l/m 0 min 0 min 40 W/m 0,0 km/h (0 Bft) 100,00 %
07.02.2021 12:32 -2,8 C -2,8 C -3,3 C 96 % 997,9 hPa 0,0 l/m 0 min 0 min 42 W/m 0,0 km/h (0 Bft) 97,87 %
07.02.2021 12:34 -2,8 C -2,8 C -3,3 C 96 % 998,0 hPa 0,0 l/m 0 min 0 min 42 W/m 0,0 km/h (0 Bft) 100,00 %
07.02.2021 12:36 -2,8 C -2,8 C -3,3 C 96 % 998,0 hPa 0,0 l/m 0 min 0 min 44 W/m 0,0 km/h (0 Bft) 95,74 %
07.02.2021 12:38 -2,7 C -2,8 C -3,3 C 96 % 997,9 hPa 0,0 l/m 0 min 0 min 45 W/m 0,0 km/h (0 Bft) 97,83 %
07.02.2021 12:40 -2,7 C -2,8 C -3,3 C 96 % 997,9 hPa 0,0 l/m 0 min 0 min 46 W/m 0,0 km/h (0 Bft) 97,87 %
07.02.2021 12:42 -2,7 C -2,8 C -3,3 C 96 % 997,9 hPa 0,0 l/m 0 min 0 min 46 W/m 0,0 km/h (0 Bft) 97,87 %
07.02.2021 12:44 -2,7 C -2,8 C -3,3 C 96 % 998,0 hPa 0,0 l/m 0 min 0 min 44 W/m 0,0 km/h (0 Bft) 97,87 %
07.02.2021 12:46 -2,7 C -2,8 C -3,3 C 96 % 998,0 hPa 0,0 l/m 0 min 0 min 44 W/m 0,0 km/h (0 Bft) 95,74 %
07.02.2021 12:48 -2,7 C -2,8 C -3,3 C 96 % 997,9 hPa 0,0 l/m 0 min 0 min 42 W/m 0,0 km/h (0 Bft) 97,83 %
07.02.2021 12:50 -2,6 C -2,8 C -3,3 C 96 % 998,0 hPa 0,0 l/m 0 min 0 min 41 W/m 0,0 km/h (0 Bft) 97,87 %
07.02.2021 12:52 -2,6 C -2,8 C -3,3 C 96 % 998,0 hPa 0,0 l/m 0 min 0 min 40 W/m 3,2 km/h (1 Bft) 97,87 %
07.02.2021 12:54 -2,6 C -2,2 C -3,3 C 96 % 998,0 hPa 0,0 l/m 0 min 0 min 41 W/m 3,2 km/h (1 Bft) 95,74 %
07.02.2021 12:56 -2,6 C -2,2 C -3,3 C 96 % 998,0 hPa 0,0 l/m 0 min 0 min 40 W/m 0,0 km/h (0 Bft) 97,83 %
07.02.2021 12:58 -2,6 C -2,2 C -3,3 C 96 % 998,0 hPa 0,0 l/m 0 min 0 min 40 W/m 0,0 km/h (0 Bft) 93,62 %
07.02.2021 13:00 -2,6 C -2,8 C -3,3 C 96 % 997,9 hPa 0,0 l/m 0 min 0 min 38 W/m 0,0 km/h (0 Bft) 100,00 %
07.02.2021 13:02 -2,6 C -2,8 C -3,3 C 96 % 998,0 hPa 0,0 l/m 0 min 0 min 35 W/m 0,0 km/h (0 Bft) 95,74 %
07.02.2021 13:04 -2,6 C -2,8 C -3,3 C 96 % 998,0 hPa 0,0 l/m 0 min 0 min 33 W/m 0,0 km/h (0 Bft) 95,74 %
07.02.2021 13:06 -2,6 C -2,8 C -3,3 C 96 % 998,0 hPa 0,0 l/m 0 min 0 min 33 W/m 0,0 km/h (0 Bft) 97,87 %
07.02.2021 13:08 -2,6 C -2,8 C -3,3 C 96 % 998,0 hPa 0,0 l/m 0 min 0 min 32 W/m 0,0 km/h (0 Bft) 93,62 %
07.02.2021 13:10 -2,6 C -2,8 C -3,3 C 95 % 998,0 hPa 0,0 l/m 0 min 0 min 32 W/m 0,0 km/h (0 Bft) 95,74 %
07.02.2021 13:12 -2,6 C -2,8 C -3,3 C 95 % 998,0 hPa 0,0 l/m 0 min 0 min 32 W/m 3,2 km/h (1 Bft) 95,65 %
07.02.2021 13:14 -2,6 C -2,8 C -3,3 C 95 % 998,0 hPa 0,0 l/m 0 min 0 min 31 W/m 0,0 km/h (0 Bft) 95,74 %
07.02.2021 13:16 -2,6 C -2,8 C -3,3 C 95 % 998,0 hPa 0,0 l/m 0 min 0 min 32 W/m 0,0 km/h (0 Bft) 93,62 %
07.02.2021 13:18 -2,6 C -2,8 C -3,3 C 95 % 998,0 hPa 0,0 l/m 0 min 0 min 33 W/m 0,0 km/h (0 Bft) 95,74 %
07.02.2021 13:20 -2,6 C -2,8 C -3,3 C 95 % 998,0 hPa 0,0 l/m 0 min 0 min 37 W/m 0,0 km/h (0 Bft) 95,74 %
07.02.2021 13:22 -2,6 C -2,8 C -3,3 C 95 % 998,0 hPa 0,0 l/m 0 min 0 min 37 W/m 0,0 km/h (0 Bft) 93,62 %
07.02.2021 13:24 -2,6 C -2,8 C -3,3 C 95 % 998,0 hPa 0,0 l/m 0 min 0 min 35 W/m 0,0 km/h (0 Bft) 95,65 %
07.02.2021 13:26 -2,6 C -2,8 C -3,3 C 95 % 997,9 hPa 0,0 l/m 0 min 0 min 31 W/m 0,0 km/h (0 Bft) 95,74 %
07.02.2021 13:28 -2,6 C -2,8 C -3,3 C 95 % 997,9 hPa 0,0 l/m 0 min 0 min 27 W/m 0,0 km/h (0 Bft) 95,74 %
07.02.2021 13:30 -2,6 C -2,8 C -3,3 C 95 % 997,9 hPa 0,0 l/m 0 min 0 min 26 W/m 0,0 km/h (0 Bft) 97,87 %
07.02.2021 13:32 -2,6 C -2,8 C -3,3 C 95 % 997,9 hPa 0,0 l/m 0 min 0 min 27 W/m 0,0 km/h (0 Bft) 97,87 %
07.02.2021 13:34 -2,6 C -2,8 C -3,3 C 95 % 997,9 hPa 0,0 l/m 0 min 0 min 30 W/m 0,0 km/h (0 Bft) 95,74 %
07.02.2021 13:36 -2,6 C -2,8 C -3,3 C 95 % 997,9 hPa 0,0 l/m 0 min 0 min 33 W/m 0,0 km/h (0 Bft) 97,83 %
07.02.2021 13:38 -2,6 C -2,8 C -3,3 C 95 % 997,9 hPa 0,0 l/m 0 min 0 min 33 W/m 0,0 km/h (0 Bft) 95,74 %
07.02.2021 13:40 -2,6 C -2,8 C -3,3 C 95 % 998,0 hPa 0,0 l/m 0 min 0 min 36 W/m 0,0 km/h (0 Bft) 97,87 %
07.02.2021 13:42 -2,6 C -2,2 C -3,3 C 95 % 997,9 hPa 0,0 l/m 0 min 0 min 45 W/m 0,0 km/h (0 Bft) 97,87 %
07.02.2021 13:44 -2,5 C -2,2 C -2,7 C 95 % 997,9 hPa 0,0 l/m 0 min 0 min 51 W/m 0,0 km/h (0 Bft) 95,74 %
07.02.2021 13:46 -2,5 C -2,2 C -2,7 C 95 % 998,0 hPa 0,0 l/m 0 min 0 min 48 W/m 0,0 km/h (0 Bft) 97,87 %
07.02.2021 13:48 -2,5 C -2,2 C -2,7 C 95 % 997,9 hPa 0,0 l/m 0 min 0 min 44 W/m 0,0 km/h (0 Bft) 97,83 %
07.02.2021 13:50 -2,5 C -2,2 C -3,3 C 95 % 997,8 hPa 0,0 l/m 0 min 0 min 39 W/m 0,0 km/h (0 Bft) 97,87 %
07.02.2021 13:52 -2,4 C -2,2 C -3,3 C 95 % 997,9 hPa 0,0 l/m 0 min 0 min 31 W/m 0,0 km/h (0 Bft) 97,87 %
07.02.2021 13:54 -2,4 C -2,8 C -3,3 C 95 % 997,9 hPa 0,0 l/m 0 min 0 min 25 W/m 0,0 km/h (0 Bft) 100,00 %
07.02.2021 13:56 -2,4 C -2,8 C -3,3 C 95 % 997,8 hPa 0,0 l/m 0 min 0 min 22 W/m 0,0 km/h (0 Bft) 100,00 %
07.02.2021 13:58 -2,5 C -2,8 C -3,3 C 95 % 997,8 hPa 0,0 l/m 0 min 0 min 18 W/m 0,0 km/h (0 Bft) 100,00 %
07.02.2021 14:00 -2,5 C -2,8 C -3,3 C 95 % 997,9 hPa 0,0 l/m 0 min 0 min 16 W/m 0,0 km/h (0 Bft) 100,00 %
07.02.2021 14:02 -2,5 C -2,8 C -3,8 C 95 % 997,9 hPa 0,0 l/m 0 min 0 min 16 W/m 0,0 km/h (0 Bft) 100,00 %
07.02.2021 14:04 -2,5 C -3,3 C -3,8 C 95 % 997,9 hPa 0,0 l/m 0 min 0 min 16 W/m 0,0 km/h (0 Bft) 100,00 %
07.02.2021 14:06 -2,6 C -3,3 C -3,8 C 95 % 997,9 hPa 0,0 l/m 0 min 0 min 17 W/m 0,0 km/h (0 Bft) 100,00 %
07.02.2021 14:08 -2,6 C -2,8 C -3,8 C 95 % 997,9 hPa 0,0 l/m 0 min 0 min 19 W/m 0,0 km/h (0 Bft) 100,00 %
07.02.2021 14:10 -2,6 C -2,8 C -3,8 C 95 % 997,8 hPa 0,0 l/m 0 min 0 min 19 W/m 0,0 km/h (0 Bft) 100,00 %
07.02.2021 14:12 -2,6 C -2,8 C -3,8 C 95 % 997,8 hPa 0,0 l/m 0 min 0 min 20 W/m 0,0 km/h (0 Bft) 100,00 %
07.02.2021 14:14 -2,6 C -2,8 C -3,8 C 95 % 997,8 hPa 0,0 l/m 0 min 0 min 21 W/m 0,0 km/h (0 Bft) 97,87 %
07.02.2021 14:16 -2,6 C -2,8 C -3,8 C 95 % 997,8 hPa 0,0 l/m 0 min 0 min 21 W/m 0,0 km/h (0 Bft) 100,00 %
07.02.2021 14:18 -2,6 C -2,8 C -3,8 C 95 % 997,9 hPa 0,0 l/m 0 min 0 min 20 W/m 0,0 km/h (0 Bft) 100,00 %
07.02.2021 14:20 -2,6 C -2,8 C -3,8 C 95 % 997,9 hPa 0,0 l/m 0 min 0 min 22 W/m 0,0 km/h (0 Bft) 100,00 %
07.02.2021 14:22 -2,6 C -2,8 C -3,8 C 95 % 997,9 hPa 0,0 l/m 0 min 0 min 23 W/m 0,0 km/h (0 Bft) 100,00 %
07.02.2021 14:24 -2,6 C -2,8 C -3,8 C 95 % 997,9 hPa 0,0 l/m 0 min 0 min 22 W/m 0,0 km/h (0 Bft) 100,00 %
07.02.2021 14:26 -2,6 C -2,8 C -3,8 C 95 % 997,9 hPa 0,0 l/m 0 min 0 min 20 W/m 0,0 km/h (0 Bft) 98,00 %
07.02.2021 14:28 -2,6 C -2,8 C -3,8 C 95 % 997,8 hPa 0,0 l/m 0 min 0 min 18 W/m 0,0 km/h (0 Bft) 100,00 %
07.02.2021 14:30 -2,6 C -2,8 C -3,8 C 95 % 997,9 hPa 0,0 l/m 0 min 0 min 17 W/m 0,0 km/h (0 Bft) 100,00 %
07.02.2021 14:32 -2,6 C -2,8 C -3,8 C 95 % 997,8 hPa 0,0 l/m 0 min 0 min 16 W/m 0,0 km/h (0 Bft) 100,00 %
07.02.2021 14:34 -2,6 C -2,8 C -3,8 C 95 % 997,8 hPa 0,0 l/m 0 min 0 min 16 W/m 3,2 km/h (1 Bft) 100,00 %
07.02.2021 14:36 -2,6 C -2,8 C -3,8 C 95 % 997,9 hPa 0,0 l/m 0 min 0 min 14 W/m 3,2 km/h (1 Bft) 100,00 %
07.02.2021 14:38 -2,6 C -3,3 C -3,8 C 95 % 998,0 hPa 0,0 l/m 0 min 0 min 13 W/m 0,0 km/h (0 Bft) 97,87 %
07.02.2021 14:40 -2,6 C -3,3 C -3,8 C 95 % 998,0 hPa 0,0 l/m 0 min 0 min 13 W/m 0,0 km/h (0 Bft) 97,87 %
07.02.2021 14:42 -2,6 C -3,3 C -3,8 C 95 % 998,0 hPa 0,0 l/m 0 min 0 min 14 W/m 0,0 km/h (0 Bft) 100,00 %
07.02.2021 14:44 -2,6 C -3,3 C -3,8 C 95 % 998,0 hPa 0,0 l/m 0 min 0 min 14 W/m 0,0 km/h (0 Bft) 97,83 %
07.02.2021 14:46 -2,6 C -3,3 C -3,8 C 95 % 998,1 hPa 0,0 l/m 0 min 0 min 14 W/m 0,0 km/h (0 Bft) 97,87 %
07.02.2021 14:48 -2,7 C -3,3 C -3,8 C 95 % 998,0 hPa 0,0 l/m 0 min 0 min 14 W/m 0,0 km/h (0 Bft) 100,00 %
07.02.2021 14:50 -2,7 C -3,3 C -3,8 C 95 % 998,0 hPa 0,0 l/m 0 min 0 min 14 W/m 0,0 km/h (0 Bft) 100,00 %
07.02.2021 14:52 -2,7 C -3,3 C -3,8 C 95 % 998,0 hPa 0,0 l/m 0 min 0 min 14 W/m 0,0 km/h (0 Bft) 100,00 %
07.02.2021 14:54 -2,7 C -3,3 C -3,8 C 94 % 997,9 hPa 0,0 l/m 0 min 0 min 14 W/m 0,0 km/h (0 Bft) 100,00 %
07.02.2021 14:56 -2,7 C -3,3 C -3,8 C 94 % 997,9 hPa 0,0 l/m 0 min 0 min 14 W/m 0,0 km/h (0 Bft) 100,00 %
07.02.2021 14:58 -2,7 C -3,3 C -3,8 C 95 % 997,9 hPa 0,0 l/m 0 min 0 min 14 W/m 0,0 km/h (0 Bft) 100,00 %
07.02.2021 15:00 -2,7 C -3,3 C -3,8 C 95 % 997,8 hPa 0,0 l/m 0 min 0 min 14 W/m 0,0 km/h (0 Bft) 100,00 %
07.02.2021 15:02 -2,7 C -3,3 C -3,8 C 94 % 997,9 hPa 0,0 l/m 0 min 0 min 14 W/m 0,0 km/h (0 Bft) 100,00 %
07.02.2021 15:04 -2,7 C -3,3 C -3,8 C 94 % 997,9 hPa 0,0 l/m 0 min 0 min 14 W/m 0,0 km/h (0 Bft) 100,00 %
07.02.2021 15:06 -2,7 C -3,3 C -3,8 C 94 % 998,0 hPa 0,0 l/m 0 min 0 min 12 W/m 0,0 km/h (0 Bft) 100,00 %
07.02.2021 15:08 -2,8 C -3,3 C -3,8 C 95 % 998,0 hPa 0,0 l/m 0 min 0 min 12 W/m 0,0 km/h (0 Bft) 100,00 %
07.02.2021 15:10 -2,8 C -3,3 C -3,8 C 95 % 998,0 hPa 0,0 l/m 0 min 0 min 11 W/m 0,0 km/h (0 Bft) 100,00 %
07.02.2021 15:12 -2,8 C -3,3 C -3,8 C 95 % 998,0 hPa 0,0 l/m 0 min 0 min 11 W/m 0,0 km/h (0 Bft) 100,00 %
07.02.2021 15:14 -2,8 C -3,3 C -3,8 C 94 % 998,0 hPa 0,0 l/m 0 min 0 min 11 W/m 0,0 km/h (0 Bft) 97,87 %
07.02.2021 15:16 -2,9 C -3,3 C -3,8 C 94 % 998,0 hPa 0,0 l/m 0 min 0 min 9 W/m 0,0 km/h (0 Bft) 100,00 %
07.02.2021 15:18 -2,9 C -3,3 C -3,8 C 94 % 998,1 hPa 0,0 l/m 0 min 0 min 9 W/m 0,0 km/h (0 Bft) 97,87 %
07.02.2021 15:20 -2,9 C -3,3 C -3,8 C 94 % 998,1 hPa 0,0 l/m 0 min 0 min 9 W/m 0,0 km/h (0 Bft) 100,00 %
07.02.2021 15:22 -2,9 C -3,3 C -3,8 C 94 % 998,1 hPa 0,0 l/m 0 min 0 min 9 W/m 0,0 km/h (0 Bft) 97,87 %
07.02.2021 15:24 -2,9 C -3,3 C -3,8 C 94 % 998,2 hPa 0,0 l/m 0 min 0 min 9 W/m 0,0 km/h (0 Bft) 100,00 %
07.02.2021 15:26 -2,9 C -3,3 C -4,4 C 94 % 998,2 hPa 0,0 l/m 0 min 0 min 11 W/m 0,0 km/h (0 Bft) 100,00 %
07.02.2021 15:28 -2,9 C -3,3 C -4,4 C 94 % 998,3 hPa 0,0 l/m 0 min 0 min 11 W/m 0,0 km/h (0 Bft) 100,00 %
07.02.2021 15:30 -2,9 C -3,3 C -4,4 C 94 % 998,3 hPa 0,0 l/m 0 min 0 min 11 W/m 0,0 km/h (0 Bft) 100,00 %
07.02.2021 15:32 -2,9 C -3,3 C -4,4 C 94 % 998,3 hPa 0,0 l/m 0 min 0 min 11 W/m 0,0 km/h (0 Bft) 97,83 %
07.02.2021 15:34 -3,0 C -3,3 C -3,8 C 94 % 998,2 hPa 0,0 l/m 0 min 0 min 11 W/m 0,0 km/h (0 Bft) 100,00 %
07.02.2021 15:36 -3,0 C -3,3 C -3,8 C 94 % 998,3 hPa 0,0 l/m 0 min 0 min 11 W/m 3,2 km/h (1 Bft) 97,87 %
07.02.2021 15:38 -3,0 C -3,3 C -3,8 C 94 % 998,3 hPa 0,0 l/m 0 min 0 min 11 W/m 0,0 km/h (0 Bft) 97,87 %
07.02.2021 15:40 -3,0 C -3,3 C -3,8 C 94 % 998,3 hPa 0,0 l/m 0 min 0 min 11 W/m 0,0 km/h (0 Bft) 97,87 %
07.02.2021 15:42 -3,0 C -3,3 C -3,8 C 94 % 998,3 hPa 0,0 l/m 0 min 0 min 11 W/m 0,0 km/h (0 Bft) 93,62 %
07.02.2021 15:44 -3,0 C -3,3 C -4,4 C 94 % 998,3 hPa 0,0 l/m 0 min 0 min 11 W/m 0,0 km/h (0 Bft) 95,65 %
07.02.2021 15:46 -3,0 C -3,3 C -4,4 C 94 % 998,4 hPa 0,0 l/m 0 min 0 min 10 W/m 0,0 km/h (0 Bft) 95,74 %
07.02.2021 15:48 -3,0 C -3,3 C -4,4 C 94 % 998,4 hPa 0,0 l/m 0 min 0 min 9 W/m 6,4 km/h (2 Bft) 95,74 %
07.02.2021 15:50 -3,0 C -3,3 C -4,4 C 94 % 998,4 hPa 0,0 l/m 0 min 0 min 8 W/m 3,2 km/h (1 Bft) 95,74 %
07.02.2021 15:52 -3,0 C -3,3 C -4,4 C 94 % 998,4 hPa 0,0 l/m 0 min 0 min 7 W/m 3,2 km/h (1 Bft) 93,62 %
07.02.2021 15:54 -3,0 C -3,3 C -4,4 C 94 % 998,4 hPa 0,0 l/m 0 min 0 min 7 W/m 3,2 km/h (1 Bft) 95,74 %
07.02.2021 15:56 -3,0 C -3,3 C -4,4 C 94 % 998,4 hPa 0,0 l/m 0 min 0 min 7 W/m 0,0 km/h (0 Bft) 93,48 %
07.02.2021 15:58 -3,0 C -3,3 C -4,4 C 94 % 998,5 hPa 0,0 l/m 0 min 0 min 6 W/m 0,0 km/h (0 Bft) 91,49 %
07.02.2021 16:00 -3,0 C -3,3 C -4,4 C 94 % 998,5 hPa 0,0 l/m 0 min 0 min 5 W/m 0,0 km/h (0 Bft) 93,62 %
07.02.2021 16:02 -3,0 C -3,9 C -4,4 C 94 % 998,4 hPa 0,0 l/m 0 min 0 min 5 W/m 0,0 km/h (0 Bft) 93,62 %
07.02.2021 16:04 -3,0 C -3,3 C -4,4 C 94 % 998,5 hPa 0,0 l/m 0 min 0 min 5 W/m 0,0 km/h (0 Bft) 95,74 %
07.02.2021 16:06 -3,0 C -3,3 C -4,4 C 94 % 998,5 hPa 0,0 l/m 0 min 0 min 5 W/m 0,0 km/h (0 Bft) 91,49 %
07.02.2021 16:08 -3,0 C -3,3 C -4,4 C 94 % 998,5 hPa 0,0 l/m 0 min 0 min 5 W/m 0,0 km/h (0 Bft) 93,48 %
07.02.2021 16:10 -3,0 C -3,3 C -4,4 C 94 % 998,5 hPa 0,0 l/m 0 min 0 min 5 W/m 0,0 km/h (0 Bft) 91,49 %
07.02.2021 16:12 -3,0 C -3,3 C -4,4 C 94 % 998,6 hPa 0,0 l/m 0 min 0 min 2 W/m 0,0 km/h (0 Bft) 93,62 %
07.02.2021 16:14 -3,0 C -3,3 C -4,4 C 94 % 998,6 hPa 0,0 l/m 0 min 0 min 0 W/m 0,0 km/h (0 Bft) 89,36 %
07.02.2021 16:16 -3,0 C -3,3 C -4,4 C 94 % 998,6 hPa 0,0 l/m 0 min 0 min 0 W/m 0,0 km/h (0 Bft) 76,60 %
07.02.2021 16:18 -3,0 C -3,3 C -4,4 C 94 % 998,6 hPa 0,0 l/m 0 min 0 min 0 W/m 0,0 km/h (0 Bft) 67,44 %
07.02.2021 16:20 -3,0 C -3,3 C -4,4 C 94 % 998,6 hPa 0,0 l/m 0 min 0 min 0 W/m 0,0 km/h (0 Bft) 93,62 %
07.02.2021 16:22 -3,0 C -3,9 C -4,4 C 94 % 998,7 hPa 0,0 l/m 0 min 0 min 0 W/m 0,0 km/h (0 Bft) 95,74 %
07.02.2021 16:24 -3,0 C -3,9 C -4,4 C 94 % 998,6 hPa 0,0 l/m 0 min 0 min 0 W/m 0,0 km/h (0 Bft) 97,87 %
07.02.2021 16:26 -3,1 C -3,9 C -4,4 C 94 % 998,6 hPa 0,0 l/m 0 min 0 min 0 W/m 0,0 km/h (0 Bft) 95,74 %
07.02.2021 16:28 -3,1 C -3,9 C -4,4 C 94 % 998,6 hPa 0,0 l/m 0 min 0 min 0 W/m 0,0 km/h (0 Bft) 95,74 %
07.02.2021 16:30 -3,1 C -3,9 C -4,4 C 94 % 998,7 hPa 0,0 l/m 0 min 0 min 0 W/m 0,0 km/h (0 Bft) 95,65 %
07.02.2021 16:32 -3,1 C -3,9 C -4,4 C 94 % 998,7 hPa 0,0 l/m 0 min 0 min 0 W/m 0,0 km/h (0 Bft) 95,74 %
07.02.2021 16:34 -3,1 C -3,9 C -4,4 C 94 % 998,7 hPa 0,0 l/m 0 min 0 min 0 W/m 0,0 km/h (0 Bft) 95,74 %
07.02.2021 16:36 -3,1 C -3,9 C -4,4 C 94 % 998,7 hPa 0,0 l/m 0 min 0 min 0 W/m 0,0 km/h (0 Bft) 93,62 %
07.02.2021 16:38 -3,1 C -3,9 C -4,4 C 94 % 998,7 hPa 0,0 l/m 0 min 0 min 0 W/m 0,0 km/h (0 Bft) 95,74 %
07.02.2021 16:40 -3,1 C -3,9 C -4,4 C 94 % 998,7 hPa 0,0 l/m 0 min 0 min 0 W/m 0,0 km/h (0 Bft) 95,74 %
07.02.2021 16:42 -3,1 C -3,9 C -4,4 C 94 % 998,8 hPa 0,0 l/m 0 min 0 min 0 W/m 0,0 km/h (0 Bft) 93,48 %
07.02.2021 16:44 -3,1 C -3,9 C -4,4 C 94 % 998,7 hPa 0,0 l/m 0 min 0 min 0 W/m 0,0 km/h (0 Bft) 93,62 %
07.02.2021 16:46 -3,1 C -3,9 C -4,4 C 94 % 998,7 hPa 0,0 l/m 0 min 0 min 0 W/m 0,0 km/h (0 Bft) 95,74 %
07.02.2021 16:48 -3,2 C -3,9 C -4,4 C 94 % 998,7 hPa 0,0 l/m 0 min 0 min 0 W/m 0,0 km/h (0 Bft) 95,74 %
07.02.2021 16:50 -3,2 C -3,9 C -4,4 C 94 % 998,7 hPa 0,0 l/m 0 min 0 min 0 W/m 0,0 km/h (0 Bft) 97,87 %
07.02.2021 16:52 -3,2 C -3,9 C -4,4 C 94 % 998,7 hPa 0,0 l/m 0 min 0 min 0 W/m 0,0 km/h (0 Bft) 97,87 %
07.02.2021 16:54 -3,2 C -3,9 C -4,4 C 94 % 998,7 hPa 0,0 l/m 0 min 0 min 0 W/m 0,0 km/h (0 Bft) 97,83 %
07.02.2021 16:56 -3,2 C -3,9 C -4,4 C 94 % 998,7 hPa 0,0 l/m 0 min 0 min 0 W/m 0,0 km/h (0 Bft) 97,87 %
07.02.2021 16:58 -3,2 C -3,9 C -4,4 C 94 % 998,7 hPa 0,0 l/m 0 min 0 min 0 W/m 0,0 km/h (0 Bft) 97,87 %
07.02.2021 17:00 -3,2 C -3,9 C -4,4 C 94 % 998,6 hPa 0,0 l/m 0 min 0 min 0 W/m 0,0 km/h (0 Bft) 97,87 %
07.02.2021 17:02 -3,3 C -3,9 C -4,4 C 94 % 998,7 hPa 0,0 l/m 0 min 0 min 0 W/m 0,0 km/h (0 Bft) 94,29 %
07.02.2021 17:04 -3,2 C -3,9 C -4,4 C 94 % 998,7 hPa 0,0 l/m 0 min 0 min 0 W/m 0,0 km/h (0 Bft) 98,11 %
07.02.2021 17:06 -3,3 C -3,9 C -4,4 C 94 % 998,7 hPa 0,0 l/m 0 min 0 min 0 W/m 3,2 km/h (1 Bft) 97,56 %
07.02.2021 17:08 -3,3 C -3,9 C -5,0 C 95 % 998,7 hPa 0,0 l/m 0 min 0 min 0 W/m 0,0 km/h (0 Bft) 98,08 %
07.02.2021 17:10 -3,3 C -3,9 C -5,0 C 95 % 998,8 hPa 0,0 l/m 0 min 0 min 0 W/m 0,0 km/h (0 Bft) 95,74 %
07.02.2021 17:12 -3,4 C -3,9 C -5,0 C 95 % 998,8 hPa 0,0 l/m 0 min 0 min 0 W/m 0,0 km/h (0 Bft) 97,87 %
07.02.2021 17:14 -3,4 C -3,9 C -5,0 C 94 % 998,7 hPa 0,0 l/m 0 min 0 min 0 W/m 0,0 km/h (0 Bft) 97,87 %
07.02.2021 17:16 -3,4 C -3,9 C -5,0 C 94 % 998,8 hPa 0,0 l/m 0 min 0 min 0 W/m 0,0 km/h (0 Bft) 97,56 %
07.02.2021 17:18 -3,4 C -3,9 C -5,0 C 94 % 998,7 hPa 0,0 l/m 0 min 0 min 0 W/m 0,0 km/h (0 Bft) 97,87 %
07.02.2021 17:20 -3,4 C -3,9 C -5,0 C 94 % 998,7 hPa 0,0 l/m 0 min 0 min 0 W/m 0,0 km/h (0 Bft) 98,08 %
07.02.2021 17:22 -3,4 C -3,9 C -5,0 C 95 % 998,7 hPa 0,0 l/m 0 min 0 min 0 W/m 0,0 km/h (0 Bft) 97,87 %
07.02.2021 17:24 -3,4 C -3,9 C -5,0 C 94 % 998,7 hPa 0,0 l/m 0 min 0 min 0 W/m 0,0 km/h (0 Bft) 95,74 %
07.02.2021 17:26 -3,4 C -3,9 C -5,0 C 95 % 998,7 hPa 0,0 l/m 0 min 0 min 0 W/m 0,0 km/h (0 Bft) 97,87 %
07.02.2021 17:28 -3,4 C -3,9 C -5,0 C 95 % 998,7 hPa 0,0 l/m 0 min 0 min 0 W/m 0,0 km/h (0 Bft) 95,74 %
07.02.2021 17:30 -3,4 C -3,9 C -5,0 C 95 % 998,7 hPa 0,0 l/m 0 min 0 min 0 W/m 0,0 km/h (0 Bft) 97,87 %
07.02.2021 17:32 -3,4 C -3,9 C -5,0 C 95 % 998,7 hPa 0,0 l/m 0 min 0 min 0 W/m 0,0 km/h (0 Bft) 97,56 %
07.02.2021 17:34 -3,4 C -3,9 C -5,0 C 95 % 998,6 hPa 0,0 l/m 0 min 0 min 0 W/m 0,0 km/h (0 Bft) 96,15 %
07.02.2021 17:36 -3,5 C -3,9 C -5,0 C 95 % 998,7 hPa 0,0 l/m 0 min 0 min 0 W/m 0,0 km/h (0 Bft) 97,87 %
07.02.2021 17:38 -3,5 C -3,9 C -5,0 C 95 % 998,7 hPa 0,0 l/m 0 min 0 min 0 W/m 0,0 km/h (0 Bft) 95,74 %
07.02.2021 17:40 -3,5 C -3,9 C -5,0 C 95 % 998,8 hPa 0,0 l/m 0 min 0 min 0 W/m 0,0 km/h (0 Bft) 97,87 %
07.02.2021 17:42 -3,5 C -3,9 C -5,0 C 95 % 998,8 hPa 0,0 l/m 0 min 0 min 0 W/m 0,0 km/h (0 Bft) 97,87 %
07.02.2021 17:44 -3,5 C -3,9 C -5,0 C 95 % 998,8 hPa 0,0 l/m 0 min 0 min 0 W/m 3,2 km/h (1 Bft) 97,83 %
07.02.2021 17:46 -3,5 C -3,9 C -5,0 C 95 % 998,8 hPa 0,0 l/m 0 min 0 min 0 W/m 0,0 km/h (0 Bft) 95,12 %
07.02.2021 17:48 -3,5 C -3,9 C -5,0 C 95 % 998,8 hPa 0,0 l/m 0 min 0 min 0 W/m 0,0 km/h (0 Bft) 98,11 %
07.02.2021 17:50 -3,5 C -3,9 C -5,0 C 95 % 998,9 hPa 0,0 l/m 0 min 0 min 0 W/m 0,0 km/h (0 Bft) 95,74 %
07.02.2021 17:52 -3,5 C -3,9 C -5,0 C 95 % 998,8 hPa 0,0 l/m 0 min 0 min 0 W/m 0,0 km/h (0 Bft) 97,87 %
07.02.2021 17:54 -3,5 C -3,9 C -5,0 C 95 % 998,9 hPa 0,0 l/m 0 min 0 min 0 W/m 0,0 km/h (0 Bft) 97,83 %
07.02.2021 17:56 -3,5 C -3,9 C -5,0 C 95 % 998,9 hPa 0,0 l/m 0 min 0 min 0 W/m 0,0 km/h (0 Bft) 97,87 %
07.02.2021 17:58 -3,5 C -3,9 C -5,0 C 95 % 998,9 hPa 0,0 l/m 0 min 0 min 0 W/m 0,0 km/h (0 Bft) 97,87 %
07.02.2021 18:00 -3,5 C -3,9 C -5,0 C 95 % 998,9 hPa 0,0 l/m 0 min 0 min 0 W/m 0,0 km/h (0 Bft) 93,62 %
07.02.2021 18:02 -3,5 C -3,9 C -5,0 C 95 % 998,9 hPa 0,0 l/m 0 min 0 min 0 W/m 0,0 km/h (0 Bft) 97,87 %
07.02.2021 18:04 -3,5 C -3,9 C -5,0 C 95 % 999,0 hPa 0,0 l/m 0 min 0 min 0 W/m 0,0 km/h (0 Bft) 95,74 %
07.02.2021 18:08 -3,5 C -3,9 C -5,0 C 95 % 999,0 hPa 0,0 l/m 0 min 0 min 0 W/m 3,2 km/h (1 Bft) 96,77 %
07.02.2021 18:10 -3,6 C -3,9 C -5,0 C 95 % 999,1 hPa 0,0 l/m 0 min 0 min 0 W/m 0,0 km/h (0 Bft) 95,74 %
07.02.2021 18:12 -3,6 C -3,9 C -5,0 C 95 % 999,1 hPa 0,0 l/m 0 min 0 min 0 W/m 0,0 km/h (0 Bft) 95,74 %
07.02.2021 18:14 -3,6 C -3,9 C -5,0 C 95 % 999,0 hPa 0,0 l/m 0 min 0 min 0 W/m 0,0 km/h (0 Bft) 95,74 %
07.02.2021 18:16 -3,6 C -3,9 C -5,0 C 95 % 999,1 hPa 0,0 l/m 0 min 0 min 0 W/m 0,0 km/h (0 Bft) 92,68 %
07.02.2021 18:18 -3,6 C -3,9 C -5,0 C 95 % 999,0 hPa 0,0 l/m 0 min 0 min 0 W/m 0,0 km/h (0 Bft) 96,15 %
07.02.2021 18:20 -3,6 C -3,9 C -5,0 C 95 % 999,0 hPa 0,0 l/m 0 min 0 min 0 W/m 0,0 km/h (0 Bft) 95,74 %
07.02.2021 18:22 -3,6 C -3,9 C -5,0 C 95 % 999,0 hPa 0,0 l/m 0 min 0 min 0 W/m 0,0 km/h (0 Bft) 95,74 %
07.02.2021 18:24 -3,6 C -3,9 C -5,0 C 95 % 999,0 hPa 0,0 l/m 0 min 0 min 0 W/m 0,0 km/h (0 Bft) 95,74 %
07.02.2021 18:26 -3,6 C -3,9 C -5,0 C 95 % 999,0 hPa 0,0 l/m 0 min 0 min 0 W/m 3,2 km/h (1 Bft) 95,74 %
07.02.2021 18:28 -3,6 C -3,9 C -5,0 C 95 % 999,0 hPa 0,0 l/m 0 min 0 min 0 W/m 0,0 km/h (0 Bft) 95,74 %
07.02.2021 18:30 -3,6 C -3,9 C -5,0 C 95 % 999,1 hPa 0,0 l/m 0 min 0 min 0 W/m 0,0 km/h (0 Bft) 95,65 %
07.02.2021 18:32 -3,6 C -3,9 C -5,0 C 95 % 999,1 hPa 0,0 l/m 0 min 0 min 0 W/m 0,0 km/h (0 Bft) 97,56 %
07.02.2021 18:34 -3,6 C -3,9 C -5,0 C 95 % 999,1 hPa 0,0 l/m 0 min 0 min 0 W/m 0,0 km/h (0 Bft) 96,23 %
07.02.2021 18:36 -3,6 C -3,9 C -5,0 C 95 % 999,1 hPa 0,0 l/m 0 min 0 min 0 W/m 0,0 km/h (0 Bft) 95,74 %
07.02.2021 18:38 -3,6 C -3,9 C -5,0 C 95 % 999,0 hPa 0,0 l/m 0 min 0 min 0 W/m 3,2 km/h (1 Bft) 97,87 %
07.02.2021 18:40 -3,6 C -3,9 C -5,0 C 95 % 999,1 hPa 0,0 l/m 0 min 0 min 0 W/m 0,0 km/h (0 Bft) 97,92 %
07.02.2021 18:42 -3,7 C -3,9 C -5,0 C 95 % 999,1 hPa 0,0 l/m 0 min 0 min 0 W/m 0,0 km/h (0 Bft) 97,83 %
07.02.2021 18:44 -3,7 C -3,9 C -5,0 C 95 % 999,1 hPa 0,0 l/m 0 min 0 min 0 W/m 0,0 km/h (0 Bft) 95,74 %
07.02.2021 18:46 -3,7 C -3,9 C -5,0 C 95 % 999,2 hPa 0,0 l/m 0 min 0 min 0 W/m 0,0 km/h (0 Bft) 97,87 %
07.02.2021 18:48 -3,7 C -3,9 C -5,0 C 95 % 999,1 hPa 0,0 l/m 0 min 0 min 0 W/m 0,0 km/h (0 Bft) 97,87 %
07.02.2021 18:50 -3,7 C -3,9 C -5,0 C 95 % 999,1 hPa 0,0 l/m 0 min 0 min 0 W/m 0,0 km/h (0 Bft) 97,87 %
07.02.2021 18:52 -3,7 C -3,9 C -5,0 C 95 % 999,1 hPa 0,0 l/m 0 min 0 min 0 W/m 0,0 km/h (0 Bft) 100,00 %
07.02.2021 18:54 -3,7 C -3,9 C -5,0 C 95 % 999,1 hPa 0,0 l/m 0 min 0 min 0 W/m 0,0 km/h (0 Bft) 97,83 %
07.02.2021 18:56 -3,7 C -3,9 C -5,0 C 95 % 999,1 hPa 0,0 l/m 0 min 0 min 0 W/m 0,0 km/h (0 Bft) 100,00 %
07.02.2021 18:58 -3,7 C -3,9 C -5,0 C 95 % 999,1 hPa 0,0 l/m 0 min 0 min 0 W/m 0,0 km/h (0 Bft) 100,00 %
07.02.2021 19:00 -3,7 C -3,9 C -5,0 C 95 % 999,1 hPa 0,0 l/m 0 min 0 min 0 W/m 0,0 km/h (0 Bft) 100,00 %
07.02.2021 19:02 -3,7 C -3,9 C -5,0 C 95 % 999,2 hPa 0,0 l/m 0 min 0 min 0 W/m 0,0 km/h (0 Bft) 100,00 %
07.02.2021 19:04 -3,7 C -3,9 C -5,0 C 95 % 999,2 hPa 0,0 l/m 0 min 0 min 0 W/m 0,0 km/h (0 Bft) 93,62 %
07.02.2021 19:06 -3,7 C -3,9 C -5,0 C 95 % 999,2 hPa 0,0 l/m 0 min 0 min 0 W/m 0,0 km/h (0 Bft) 100,00 %
07.02.2021 19:08 -3,7 C -3,9 C -5,0 C 95 % 999,2 hPa 0,0 l/m 0 min 0 min 0 W/m 0,0 km/h (0 Bft) 97,87 %
07.02.2021 19:10 -3,7 C -3,9 C -5,0 C 95 % 999,3 hPa 0,0 l/m 0 min 0 min 0 W/m 0,0 km/h (0 Bft) 97,87 %
07.02.2021 19:12 -3,7 C -3,9 C -5,0 C 95 % 999,2 hPa 0,0 l/m 0 min 0 min 0 W/m 0,0 km/h (0 Bft) 97,87 %
07.02.2021 19:14 -3,7 C -3,9 C -5,0 C 95 % 999,2 hPa 0,0 l/m 0 min 0 min 0 W/m 0,0 km/h (0 Bft) 97,87 %
07.02.2021 19:16 -3,7 C -3,9 C -5,0 C 95 % 999,2 hPa 0,0 l/m 0 min 0 min 0 W/m 0,0 km/h (0 Bft) 80,85 %
07.02.2021 19:18 -3,7 C -3,9 C -5,0 C 95 % 999,2 hPa 0,0 l/m 0 min 0 min 0 W/m 0,0 km/h (0 Bft) 70,73 %
07.02.2021 19:20 -3,7 C -3,9 C -5,0 C 95 % 999,2 hPa 0,0 l/m 0 min 0 min 0 W/m 0,0 km/h (0 Bft) 95,74 %
07.02.2021 19:22 -3,7 C -3,9 C -5,0 C 95 % 999,2 hPa 0,0 l/m 0 min 0 min 0 W/m 0,0 km/h (0 Bft) 95,74 %
07.02.2021 19:24 -3,7 C -3,9 C -5,0 C 95 % 999,2 hPa 0,0 l/m 0 min 0 min 0 W/m 0,0 km/h (0 Bft) 93,62 %
07.02.2021 19:26 -3,7 C -3,9 C -5,0 C 95 % 999,2 hPa 0,0 l/m 0 min 0 min 0 W/m 0,0 km/h (0 Bft) 97,87 %
07.02.2021 19:28 -3,7 C -3,9 C -5,0 C 95 % 999,3 hPa 0,0 l/m 0 min 0 min 0 W/m 0,0 km/h (0 Bft) 97,83 %
07.02.2021 19:30 -3,7 C -3,9 C -5,0 C 95 % 999,3 hPa 0,0 l/m 0 min 0 min 0 W/m 0,0 km/h (0 Bft) 97,87 %
07.02.2021 19:32 -3,7 C -3,9 C -5,0 C 95 % 999,3 hPa 0,0 l/m 0 min 0 min 0 W/m 0,0 km/h (0 Bft) 95,74 %
07.02.2021 19:34 -3,7 C -3,9 C -5,0 C 95 % 999,4 hPa 0,0 l/m 0 min 0 min 0 W/m 0,0 km/h (0 Bft) 97,87 %
07.02.2021 19:36 -3,7 C -3,9 C -5,0 C 95 % 999,3 hPa 0,0 l/m 0 min 0 min 0 W/m 0,0 km/h (0 Bft) 95,74 %
07.02.2021 19:38 -3,7 C -3,9 C -5,0 C 95 % 999,3 hPa 0,0 l/m 0 min 0 min 0 W/m 0,0 km/h (0 Bft) 93,62 %
07.02.2021 19:40 -3,7 C -3,9 C -5,0 C 95 % 999,3 hPa 0,0 l/m 0 min 0 min 0 W/m 3,2 km/h (1 Bft) 95,65 %
07.02.2021 19:42 -3,7 C -3,9 C -5,0 C 95 % 999,3 hPa 0,0 l/m 0 min 0 min 0 W/m 0,0 km/h (0 Bft) 97,87 %
07.02.2021 19:44 -3,7 C -3,9 C -5,0 C 95 % 999,4 hPa 0,0 l/m 0 min 0 min 0 W/m 0,0 km/h (0 Bft) 97,87 %
07.02.2021 19:46 -3,7 C -3,9 C -5,0 C 95 % 999,4 hPa 0,0 l/m 0 min 0 min 0 W/m 0,0 km/h (0 Bft) 97,87 %
07.02.2021 19:48 -3,7 C -3,9 C -5,0 C 95 % 999,4 hPa 0,0 l/m 0 min 0 min 0 W/m 0,0 km/h (0 Bft) 97,87 %
07.02.2021 19:50 -3,7 C -3,9 C -5,0 C 95 % 999,3 hPa 0,0 l/m 0 min 0 min 0 W/m 0,0 km/h (0 Bft) 97,87 %
07.02.2021 19:52 -3,7 C -3,9 C -5,0 C 94 % 999,4 hPa 0,0 l/m 0 min 0 min 0 W/m 0,0 km/h (0 Bft) 97,83 %
07.02.2021 19:54 -3,7 C -3,9 C -5,0 C 94 % 999,5 hPa 0,0 l/m 0 min 0 min 0 W/m 0,0 km/h (0 Bft) 97,87 %
07.02.2021 19:56 -3,7 C -3,9 C -5,0 C 94 % 999,4 hPa 0,0 l/m 0 min 0 min 0 W/m 0,0 km/h (0 Bft) 97,87 %
07.02.2021 19:58 -3,7 C -3,9 C -5,0 C 94 % 999,5 hPa 0,0 l/m 0 min 0 min 0 W/m 0,0 km/h (0 Bft) 100,00 %
07.02.2021 20:00 -3,7 C -3,9 C -5,0 C 94 % 999,5 hPa 0,0 l/m 0 min 0 min 0 W/m 0,0 km/h (0 Bft) 100,00 %
07.02.2021 20:02 -3,7 C -3,9 C -5,0 C 94 % 999,5 hPa 0,0 l/m 0 min 0 min 0 W/m 0,0 km/h (0 Bft) 95,83 %
07.02.2021 20:04 -3,7 C -3,9 C -5,0 C 94 % 999,5 hPa 0,0 l/m 0 min 0 min 0 W/m 6,4 km/h (2 Bft) 100,00 %
07.02.2021 20:06 -3,7 C -4,4 C -5,0 C 94 % 999,6 hPa 0,0 l/m 0 min 0 min 0 W/m 3,2 km/h (1 Bft) 100,00 %
07.02.2021 20:08 -3,7 C -3,9 C -5,0 C 94 % 999,5 hPa 0,0 l/m 0 min 0 min 0 W/m 0,0 km/h (0 Bft) 100,00 %
07.02.2021 20:10 -3,7 C -4,4 C -5,0 C 94 % 999,5 hPa 0,0 l/m 0 min 0 min 0 W/m 0,0 km/h (0 Bft) 100,00 %
07.02.2021 20:12 -3,7 C -4,4 C -5,0 C 94 % 999,6 hPa 0,0 l/m 0 min 0 min 0 W/m 0,0 km/h (0 Bft) 100,00 %
07.02.2021 20:14 -3,7 C -3,9 C -5,0 C 94 % 999,6 hPa 0,0 l/m 0 min 0 min 0 W/m 0,0 km/h (0 Bft) 97,87 %
07.02.2021 20:16 -3,7 C -3,9 C -5,0 C 94 % 999,6 hPa 0,0 l/m 0 min 0 min 0 W/m 0,0 km/h (0 Bft) 97,83 %
07.02.2021 20:18 -3,7 C -3,9 C -5,0 C 94 % 999,6 hPa 0,0 l/m 0 min 0 min 0 W/m 0,0 km/h (0 Bft) 97,87 %
07.02.2021 20:20 -3,7 C -3,9 C -5,0 C 94 % 999,6 hPa 0,0 l/m 0 min 0 min 0 W/m 0,0 km/h (0 Bft) 100,00 %
07.02.2021 20:22 -3,7 C -3,9 C -5,0 C 94 % 999,6 hPa 0,0 l/m 0 min 0 min 0 W/m 0,0 km/h (0 Bft) 100,00 %
07.02.2021 20:24 -3,7 C -3,9 C -5,0 C 94 % 999,6 hPa 0,0 l/m 0 min 0 min 0 W/m 0,0 km/h (0 Bft) 97,87 %
07.02.2021 20:26 -3,7 C -3,9 C -5,0 C 94 % 999,6 hPa 0,0 l/m 0 min 0 min 0 W/m 0,0 km/h (0 Bft) 85,11 %
07.02.2021 20:28 -3,7 C -3,9 C -5,0 C 94 % 999,6 hPa 0,0 l/m 0 min 0 min 0 W/m 0,0 km/h (0 Bft) 66,67 %
07.02.2021 20:30 -3,7 C -3,9 C -5,0 C 94 % 999,7 hPa 0,0 l/m 0 min 0 min 0 W/m 0,0 km/h (0 Bft) 100,00 %
07.02.2021 20:32 -3,8 C -3,9 C -5,0 C 94 % 999,6 hPa 0,0 l/m 0 min 0 min 0 W/m 0,0 km/h (0 Bft) 100,00 %
07.02.2021 20:34 -3,8 C -3,9 C -5,0 C 94 % 999,7 hPa 0,0 l/m 0 min 0 min 0 W/m 0,0 km/h (0 Bft) 97,87 %
07.02.2021 20:36 -3,7 C -4,4 C -5,0 C 94 % 999,7 hPa 0,0 l/m 0 min 0 min 0 W/m 0,0 km/h (0 Bft) 95,74 %
07.02.2021 20:38 -3,7 C -4,4 C -5,0 C 94 % 999,7 hPa 0,0 l/m 0 min 0 min 0 W/m 0,0 km/h (0 Bft) 97,83 %
07.02.2021 20:40 -3,7 C -4,4 C -5,0 C 94 % 999,7 hPa 0,0 l/m 0 min 0 min 0 W/m 0,0 km/h (0 Bft) 97,87 %
07.02.2021 20:42 -3,8 C -4,4 C -5,0 C 94 % 999,7 hPa 0,0 l/m 0 min 0 min 0 W/m 0,0 km/h (0 Bft) 97,87 %
07.02.2021 20:44 -3,8 C -4,4 C -5,0 C 94 % 999,8 hPa 0,0 l/m 0 min 0 min 0 W/m 0,0 km/h (0 Bft) 97,87 %
07.02.2021 20:46 -3,8 C -4,4 C -5,0 C 94 % 999,8 hPa 0,0 l/m 0 min 0 min 0 W/m 0,0 km/h (0 Bft) 93,62 %
07.02.2021 20:48 -3,8 C -4,4 C -5,0 C 94 % 999,7 hPa 0,0 l/m 0 min 0 min 0 W/m 0,0 km/h (0 Bft) 97,87 %
07.02.2021 20:50 -3,8 C -4,4 C -5,0 C 94 % 999,7 hPa 0,0 l/m 0 min 0 min 0 W/m 0,0 km/h (0 Bft) 97,87 %
07.02.2021 20:52 -3,8 C -3,9 C -5,0 C 94 % 999,7 hPa 0,0 l/m 0 min 0 min 0 W/m 0,0 km/h (0 Bft) 97,83 %
07.02.2021 20:54 -3,8 C -4,4 C -5,0 C 94 % 999,7 hPa 0,0 l/m 0 min 0 min 0 W/m 0,0 km/h (0 Bft) 97,87 %
07.02.2021 20:56 -3,8 C -4,4 C -5,0 C 94 % 999,7 hPa 0,0 l/m 0 min 0 min 0 W/m 0,0 km/h (0 Bft) 95,74 %
07.02.2021 20:58 -3,8 C -4,4 C -5,0 C 94 % 999,7 hPa 0,0 l/m 0 min 0 min 0 W/m 0,0 km/h (0 Bft) 97,87 %
07.02.2021 21:00 -3,8 C -4,4 C -5,0 C 94 % 999,6 hPa 0,0 l/m 0 min 0 min 0 W/m 0,0 km/h (0 Bft) 97,87 %
07.02.2021 21:02 -3,8 C -4,4 C -5,0 C 94 % 999,6 hPa 0,0 l/m 0 min 0 min 0 W/m 0,0 km/h (0 Bft) 97,83 %
07.02.2021 21:04 -3,8 C -4,4 C -5,0 C 94 % 999,6 hPa 0,0 l/m 0 min 0 min 0 W/m 0,0 km/h (0 Bft) 95,74 %
07.02.2021 21:06 -3,8 C -4,4 C -5,5 C 94 % 999,7 hPa 0,0 l/m 0 min 0 min 0 W/m 0,0 km/h (0 Bft) 97,87 %
07.02.2021 21:08 -3,8 C -4,4 C -5,0 C 94 % 999,6 hPa 0,0 l/m 0 min 0 min 0 W/m 0,0 km/h (0 Bft) 97,87 %
07.02.2021 21:10 -3,8 C -4,4 C -5,0 C 94 % 999,6 hPa 0,0 l/m 0 min 0 min 0 W/m 0,0 km/h (0 Bft) 97,87 %
07.02.2021 21:12 -3,8 C -4,4 C -5,5 C 94 % 999,6 hPa 0,0 l/m 0 min 0 min 0 W/m 0,0 km/h (0 Bft) 97,87 %
07.02.2021 21:14 -3,8 C -4,4 C -5,0 C 94 % 999,6 hPa 0,0 l/m 0 min 0 min 0 W/m 0,0 km/h (0 Bft) 100,00 %
07.02.2021 21:16 -3,8 C -4,4 C -5,0 C 94 % 999,6 hPa 0,0 l/m 0 min 0 min 0 W/m 0,0 km/h (0 Bft) 95,74 %
07.02.2021 21:18 -3,8 C -4,4 C -5,0 C 94 % 999,6 hPa 0,0 l/m 0 min 0 min 0 W/m 0,0 km/h (0 Bft) 100,00 %
07.02.2021 21:20 -3,8 C -4,4 C -5,0 C 94 % 999,6 hPa 0,0 l/m 0 min 0 min 0 W/m 6,4 km/h (2 Bft) 100,00 %
07.02.2021 21:22 -3,9 C -4,4 C -5,5 C 94 % 999,7 hPa 0,0 l/m 0 min 0 min 0 W/m 0,0 km/h (0 Bft) 100,00 %
07.02.2021 21:24 -3,9 C -4,4 C -5,0 C 94 % 999,7 hPa 0,0 l/m 0 min 0 min 0 W/m 0,0 km/h (0 Bft) 100,00 %
07.02.2021 21:26 -3,9 C -4,4 C -5,0 C 94 % 999,7 hPa 0,0 l/m 0 min 0 min 0 W/m 0,0 km/h (0 Bft) 97,83 %
07.02.2021 21:28 -3,9 C -4,4 C -5,5 C 94 % 999,6 hPa 0,0 l/m 0 min 0 min 0 W/m 0,0 km/h (0 Bft) 97,87 %
07.02.2021 21:30 -3,9 C -4,4 C -5,5 C 94 % 999,6 hPa 0,0 l/m 0 min 0 min 0 W/m 0,0 km/h (0 Bft) 100,00 %
07.02.2021 21:32 -3,9 C -4,4 C -5,5 C 94 % 999,6 hPa 0,0 l/m 0 min 0 min 0 W/m 0,0 km/h (0 Bft) 100,00 %
07.02.2021 21:34 -3,9 C -4,4 C -5,5 C 94 % 999,6 hPa 0,0 l/m 0 min 0 min 0 W/m 0,0 km/h (0 Bft) 100,00 %
07.02.2021 21:36 -3,9 C -4,4 C -5,5 C 94 % 999,6 hPa 0,0 l/m 0 min 0 min 0 W/m 0,0 km/h (0 Bft) 100,00 %
07.02.2021 21:38 -3,9 C -4,4 C -5,5 C 94 % 999,7 hPa 0,0 l/m 0 min 0 min 0 W/m 0,0 km/h (0 Bft) 100,00 %
07.02.2021 21:40 -3,9 C -4,4 C -5,5 C 94 % 999,7 hPa 0,0 l/m 0 min 0 min 0 W/m 0,0 km/h (0 Bft) 100,00 %
07.02.2021 21:42 -3,9 C -4,4 C -5,5 C 94 % 999,7 hPa 0,0 l/m 0 min 0 min 0 W/m 0,0 km/h (0 Bft) 100,00 %
07.02.2021 21:44 -3,9 C -4,4 C -5,5 C 94 % 999,8 hPa 0,0 l/m 0 min 0 min 0 W/m 0,0 km/h (0 Bft) 100,00 %
07.02.2021 21:46 -4,0 C -4,4 C -5,5 C 94 % 999,8 hPa 0,0 l/m 0 min 0 min 0 W/m 0,0 km/h (0 Bft) 100,00 %
07.02.2021 21:48 -4,0 C -4,4 C -5,5 C 94 % 999,8 hPa 0,0 l/m 0 min 0 min 0 W/m 0,0 km/h (0 Bft) 100,00 %
07.02.2021 21:50 -4,0 C -4,4 C -5,5 C 94 % 999,8 hPa 0,0 l/m 0 min 0 min 0 W/m 0,0 km/h (0 Bft) 100,00 %
07.02.2021 21:52 -4,0 C -4,4 C -5,5 C 94 % 999,8 hPa 0,0 l/m 0 min 0 min 0 W/m 0,0 km/h (0 Bft) 100,00 %
07.02.2021 21:54 -4,0 C -4,4 C -5,5 C 94 % 999,8 hPa 0,0 l/m 0 min 0 min 0 W/m 0,0 km/h (0 Bft) 100,00 %
07.02.2021 21:56 -4,0 C -4,4 C -5,5 C 94 % 999,8 hPa 0,0 l/m 0 min 0 min 0 W/m 0,0 km/h (0 Bft) 100,00 %
07.02.2021 21:58 -4,0 C -4,4 C -5,5 C 94 % 999,7 hPa 0,0 l/m 0 min 0 min 0 W/m 0,0 km/h (0 Bft) 100,00 %
07.02.2021 22:00 -4,0 C -4,4 C -5,5 C 94 % 999,8 hPa 0,0 l/m 0 min 0 min 0 W/m 0,0 km/h (0 Bft) 97,83 %
07.02.2021 22:02 -4,0 C -4,4 C -5,5 C 94 % 999,8 hPa 0,0 l/m 0 min 0 min 0 W/m 0,0 km/h (0 Bft) 97,92 %
07.02.2021 22:04 -4,0 C -4,4 C -5,5 C 94 % 999,8 hPa 0,0 l/m 0 min 0 min 0 W/m 0,0 km/h (0 Bft) 100,00 %
07.02.2021 22:06 -4,0 C -4,4 C -5,5 C 94 % 999,9 hPa 0,0 l/m 0 min 0 min 0 W/m 0,0 km/h (0 Bft) 97,87 %
07.02.2021 22:08 -4,0 C -4,4 C -5,5 C 94 % 999,9 hPa 0,0 l/m 0 min 0 min 0 W/m 3,2 km/h (1 Bft) 100,00 %
07.02.2021 22:10 -4,0 C -4,4 C -5,5 C 94 % 999,9 hPa 0,0 l/m 0 min 0 min 0 W/m 0,0 km/h (0 Bft) 97,87 %
07.02.2021 22:12 -4,0 C -4,4 C -5,5 C 94 % 1000,0 hPa 0,0 l/m 0 min 0 min 0 W/m 0,0 km/h (0 Bft) 95,65 %
07.02.2021 22:14 -4,1 C -4,4 C -5,5 C 94 % 999,9 hPa 0,0 l/m 0 min 0 min 0 W/m 0,0 km/h (0 Bft) 93,62 %
07.02.2021 22:16 -4,1 C -4,4 C -5,5 C 94 % 999,9 hPa 0,0 l/m 0 min 0 min 0 W/m 3,2 km/h (1 Bft) 97,87 %
07.02.2021 22:18 -4,1 C -4,4 C -5,5 C 94 % 999,9 hPa 0,0 l/m 0 min 0 min 0 W/m 3,2 km/h (1 Bft) 97,87 %
07.02.2021 22:20 -4,1 C -4,4 C -5,5 C 94 % 999,9 hPa 0,0 l/m 0 min 0 min 0 W/m 3,2 km/h (1 Bft) 97,87 %
07.02.2021 22:22 -4,1 C -4,4 C -5,5 C 94 % 999,9 hPa 0,0 l/m 0 min 0 min 0 W/m 0,0 km/h (0 Bft) 97,96 %
07.02.2021 22:24 -4,1 C -4,4 C -5,5 C 94 % 1000,0 hPa 0,0 l/m 0 min 0 min 0 W/m 0,0 km/h (0 Bft) 95,65 %
07.02.2021 22:26 -4,1 C -4,4 C -5,5 C 94 % 1000,0 hPa 0,0 l/m 0 min 0 min 0 W/m 0,0 km/h (0 Bft) 95,74 %
07.02.2021 22:28 -4,1 C -4,4 C -5,5 C 94 % 999,9 hPa 0,0 l/m 0 min 0 min 0 W/m 3,2 km/h (1 Bft) 97,87 %
07.02.2021 22:30 -4,1 C -4,4 C -5,5 C 94 % 999,9 hPa 0,0 l/m 0 min 0 min 0 W/m 3,2 km/h (1 Bft) 95,74 %
07.02.2021 22:32 -4,1 C -4,4 C -5,5 C 94 % 1000,0 hPa 0,0 l/m 0 min 0 min 0 W/m 0,0 km/h (0 Bft) 95,74 %
07.02.2021 22:34 -4,1 C -4,4 C -5,5 C 94 % 1000,0 hPa 0,0 l/m 0 min 0 min 0 W/m 0,0 km/h (0 Bft) 97,87 %
07.02.2021 22:36 -4,1 C -4,4 C -5,5 C 94 % 1000,0 hPa 0,0 l/m 0 min 0 min 0 W/m 0,0 km/h (0 Bft) 97,83 %
07.02.2021 22:38 -4,1 C -4,4 C -5,5 C 94 % 1000,0 hPa 0,0 l/m 0 min 0 min 0 W/m 0,0 km/h (0 Bft) 97,87 %
07.02.2021 22:40 -4,1 C -4,4 C -5,5 C 94 % 1000,0 hPa 0,0 l/m 0 min 0 min 0 W/m 0,0 km/h (0 Bft) 95,74 %
07.02.2021 22:42 -4,1 C -4,4 C -5,5 C 94 % 1000,0 hPa 0,0 l/m 0 min 0 min 0 W/m 0,0 km/h (0 Bft) 97,87 %
07.02.2021 22:44 -4,1 C -4,4 C -5,5 C 94 % 1000,0 hPa 0,0 l/m 0 min 0 min 0 W/m 0,0 km/h (0 Bft) 93,62 %
07.02.2021 22:46 -4,1 C -4,4 C -5,5 C 94 % 1000,0 hPa 0,0 l/m 0 min 0 min 0 W/m 0,0 km/h (0 Bft) 97,87 %
07.02.2021 22:48 -4,1 C -4,4 C -5,5 C 94 % 1000,1 hPa 0,0 l/m 0 min 0 min 0 W/m 0,0 km/h (0 Bft) 95,65 %
07.02.2021 22:50 -4,1 C -4,4 C -5,5 C 94 % 1000,1 hPa 0,0 l/m 0 min 0 min 0 W/m 0,0 km/h (0 Bft) 97,87 %
07.02.2021 22:52 -4,1 C -4,4 C -5,5 C 94 % 1000,1 hPa 0,0 l/m 0 min 0 min 0 W/m 0,0 km/h (0 Bft) 97,87 %
07.02.2021 22:54 -4,1 C -4,4 C -5,5 C 94 % 1000,1 hPa 0,0 l/m 0 min 0 min 0 W/m 0,0 km/h (0 Bft) 95,74 %
07.02.2021 22:56 -4,1 C -4,4 C -5,5 C 94 % 1000,1 hPa 0,0 l/m 0 min 0 min 0 W/m 0,0 km/h (0 Bft) 97,87 %
07.02.2021 22:58 -4,1 C -4,4 C -5,5 C 94 % 1000,1 hPa 0,0 l/m 0 min 0 min 0 W/m 0,0 km/h (0 Bft) 95,74 %
07.02.2021 23:00 -4,1 C -4,4 C -5,5 C 94 % 1000,1 hPa 0,0 l/m 0 min 0 min 0 W/m 0,0 km/h (0 Bft) 97,83 %
07.02.2021 23:02 -4,1 C -4,4 C -5,5 C 94 % 1000,1 hPa 0,0 l/m 0 min 0 min 0 W/m 0,0 km/h (0 Bft) 97,87 %
07.02.2021 23:04 -4,1 C -4,4 C -5,5 C 94 % 1000,1 hPa 0,0 l/m 0 min 0 min 0 W/m 0,0 km/h (0 Bft) 97,87 %
07.02.2021 23:06 -4,1 C -4,4 C -5,5 C 94 % 1000,1 hPa 0,0 l/m 0 min 0 min 0 W/m 0,0 km/h (0 Bft) 97,87 %
07.02.2021 23:08 -4,1 C -4,4 C -5,5 C 94 % 1000,1 hPa 0,0 l/m 0 min 0 min 0 W/m 0,0 km/h (0 Bft) 97,87 %
07.02.2021 23:10 -4,1 C -4,4 C -5,5 C 94 % 1000,1 hPa 0,0 l/m 0 min 0 min 0 W/m 0,0 km/h (0 Bft) 95,65 %
07.02.2021 23:12 -4,1 C -4,4 C -5,5 C 94 % 1000,0 hPa 0,0 l/m 0 min 0 min 0 W/m 0,0 km/h (0 Bft) 97,87 %
07.02.2021 23:14 -4,1 C -4,4 C -5,5 C 94 % 1000,0 hPa 0,0 l/m 0 min 0 min 0 W/m 0,0 km/h (0 Bft) 97,87 %
07.02.2021 23:16 -4,1 C -4,4 C -5,5 C 94 % 1000,0 hPa 0,0 l/m 0 min 0 min 0 W/m 0,0 km/h (0 Bft) 97,87 %
07.02.2021 23:18 -4,1 C -4,4 C -5,5 C 94 % 1000,1 hPa 0,0 l/m 0 min 0 min 0 W/m 0,0 km/h (0 Bft) 97,87 %
07.02.2021 23:20 -4,1 C -4,4 C -5,5 C 94 % 1000,1 hPa 0,0 l/m 0 min 0 min 0 W/m 0,0 km/h (0 Bft) 97,67 %
07.02.2021 23:22 -4,1 C -4,4 C -5,5 C 94 % 1000,1 hPa 0,0 l/m 0 min 0 min 0 W/m 0,0 km/h (0 Bft) 97,87 %
07.02.2021 23:24 -4,1 C -4,4 C -5,5 C 94 % 1000,1 hPa 0,0 l/m 0 min 0 min 0 W/m 0,0 km/h (0 Bft) 97,83 %
07.02.2021 23:26 -4,1 C -4,4 C -5,5 C 94 % 1000,1 hPa 0,0 l/m 0 min 0 min 0 W/m 0,0 km/h (0 Bft) 97,87 %
07.02.2021 23:28 -4,1 C -4,4 C -5,5 C 94 % 1000,1 hPa 0,0 l/m 0 min 0 min 0 W/m 0,0 km/h (0 Bft) 95,74 %
07.02.2021 23:30 -4,2 C -4,4 C -5,5 C 94 % 1000,1 hPa 0,0 l/m 0 min 0 min 0 W/m 0,0 km/h (0 Bft) 97,87 %
07.02.2021 23:32 -4,1 C -4,4 C -5,5 C 94 % 1000,1 hPa 0,0 l/m 0 min 0 min 0 W/m 0,0 km/h (0 Bft) 95,74 %
07.02.2021 23:34 -4,2 C -4,4 C -5,5 C 94 % 1000,1 hPa 0,0 l/m 0 min 0 min 0 W/m 0,0 km/h (0 Bft) 97,87 %
07.02.2021 23:36 -4,2 C -4,4 C -5,5 C 94 % 1000,0 hPa 0,0 l/m 0 min 0 min 0 W/m 0,0 km/h (0 Bft) 97,83 %
07.02.2021 23:38 -4,2 C -4,4 C -5,5 C 94 % 1000,0 hPa 0,0 l/m 0 min 0 min 0 W/m 0,0 km/h (0 Bft) 100,00 %
07.02.2021 23:40 -4,2 C -4,4 C -5,5 C 94 % 1000,0 hPa 0,0 l/m 0 min 0 min 0 W/m 0,0 km/h (0 Bft) 100,00 %
07.02.2021 23:42 -4,2 C -4,4 C -5,5 C 94 % 1000,0 hPa 0,0 l/m 0 min 0 min 0 W/m 0,0 km/h (0 Bft) 97,87 %
07.02.2021 23:44 -4,1 C -4,4 C -5,5 C 94 % 1000,0 hPa 0,0 l/m 0 min 0 min 0 W/m 0,0 km/h (0 Bft) 100,00 %
07.02.2021 23:46 -4,1 C -4,4 C -5,5 C 94 % 1000,0 hPa 0,0 l/m 0 min 0 min 0 W/m 9,7 km/h (2 Bft) 97,87 %
07.02.2021 23:48 -4,1 C -4,4 C -5,5 C 94 % 999,9 hPa 0,0 l/m 0 min 0 min 0 W/m 0,0 km/h (0 Bft) 100,00 %
07.02.2021 23:50 -4,2 C -4,4 C -5,5 C 94 % 1000,0 hPa 0,0 l/m 0 min 0 min 0 W/m 0,0 km/h (0 Bft) 97,87 %
07.02.2021 23:52 -4,2 C -4,4 C -5,5 C 94 % 1000,0 hPa 0,0 l/m 0 min 0 min 0 W/m 0,0 km/h (0 Bft) 100,00 %
07.02.2021 23:54 -4,2 C -4,4 C -5,5 C 94 % 1000,0 hPa 0,0 l/m 0 min 0 min 0 W/m 0,0 km/h (0 Bft) 57,45 %
07.02.2021 23:56 -4,2 C -4,4 C -5,5 C 94 % 999,9 hPa 0,0 l/m 0 min 0 min 0 W/m 0,0 km/h (0 Bft) 97,87 %
07.02.2021 23:58 -4,2 C -4,4 C -5,5 C 94 % 1000,0 hPa 0,0 l/m 0 min 0 min 0 W/m 0,0 km/h (0 Bft) 100,00 %
_ Min-Zeit 23:30 20:06 21:06 14:54 07:28 - - - - 00:08 07:46
Minimum _ -4,2 C -4,4 C -5,5 C 94 % 997,2 hPa - - - - 0,0 km/h (0 Bft) 46,34 %
_ Max-Zeit 00:02 00:00 00:00 00:00 00:00 00:04 00:00 00:08 13:44 08:08 00:40
Maximum _ 0,1 C -0,6 C -1,6 C 98 % 1001,8 hPa 0,2 l/m 0 min 4 min 51 W/m 12,9 km/h
NW (3 Bft)
100,00 %
Durchschnitt _ -2,3 C -2,7 C -3,4 C 96 % 998,8 hPa #1,8 l/m #0 min. #2:50 h 19 W/m 0,5 km/h (0 Bft) 96,94 %
© 2021 W. Hausmann